<?xml version="1.0" encoding="UTF-8" standalone="no" ?>
<gpx xmlns="http://www.topografix.com/GPX/1/1" xmlns:xsi="http://www.w3.org/2001/XMLSchema-instance" xsi:schemaLocation="http://www.topografix.com/GPX/1/1 http://www.topografix.com/GPX/1/1/gpx.xsd" version="1.1" creator="VisuGPX - https://www.visugpx.com">
  <metadata>
    <name>Ribemont sur ancre - 14km</name>
    <desc><![CDATA[Walkmeter Marche 14 avr. 2013 09:02:35]]></desc>
  </metadata>
  <trk>
    <name><![CDATA[Ch en S - Ribemont/ancre]]></name>
    <trkseg>
      <trkpt lat="49.95972" lon="2.56657">
        <ele>47</ele>
        <time>2013-04-14T07:02:35Z</time>
      </trkpt>
      <trkpt lat="49.95973" lon="2.56636">
        <ele>47.8</ele>
        <time>2013-04-14T07:02:51Z</time>
      </trkpt>
      <trkpt lat="49.95973" lon="2.56636">
        <ele>47.8</ele>
        <time>2013-04-14T07:04:01Z</time>
      </trkpt>
      <trkpt lat="49.95974" lon="2.56615">
        <ele>48.6</ele>
        <time>2013-04-14T07:04:03Z</time>
      </trkpt>
      <trkpt lat="49.95963" lon="2.5661">
        <ele>48.7</ele>
        <time>2013-04-14T07:04:08Z</time>
      </trkpt>
      <trkpt lat="49.95949" lon="2.56618">
        <ele>48.8</ele>
        <time>2013-04-14T07:04:12Z</time>
      </trkpt>
      <trkpt lat="49.95943" lon="2.56614">
        <ele>48.8</ele>
        <time>2013-04-14T07:04:16Z</time>
      </trkpt>
      <trkpt lat="49.95947" lon="2.56593">
        <ele>48.9</ele>
        <time>2013-04-14T07:04:21Z</time>
      </trkpt>
      <trkpt lat="49.95949" lon="2.56571">
        <ele>49</ele>
        <time>2013-04-14T07:04:27Z</time>
      </trkpt>
      <trkpt lat="49.95944" lon="2.56551">
        <ele>49.2</ele>
        <time>2013-04-14T07:04:37Z</time>
      </trkpt>
      <trkpt lat="49.95934" lon="2.56537">
        <ele>49.4</ele>
        <time>2013-04-14T07:04:48Z</time>
      </trkpt>
      <trkpt lat="49.95923" lon="2.56523">
        <ele>49.6</ele>
        <time>2013-04-14T07:04:58Z</time>
      </trkpt>
      <trkpt lat="49.95914" lon="2.56508">
        <ele>49.8</ele>
        <time>2013-04-14T07:05:07Z</time>
      </trkpt>
      <trkpt lat="49.95906" lon="2.56491">
        <ele>49.9</ele>
        <time>2013-04-14T07:05:16Z</time>
      </trkpt>
      <trkpt lat="49.95894" lon="2.56477">
        <ele>49</ele>
        <time>2013-04-14T07:05:26Z</time>
      </trkpt>
      <trkpt lat="49.95886" lon="2.5646">
        <ele>47.8</ele>
        <time>2013-04-14T07:05:35Z</time>
      </trkpt>
      <trkpt lat="49.95879" lon="2.56441">
        <ele>46.6</ele>
        <time>2013-04-14T07:05:47Z</time>
      </trkpt>
      <trkpt lat="49.9587" lon="2.56424">
        <ele>46</ele>
        <time>2013-04-14T07:05:57Z</time>
      </trkpt>
      <trkpt lat="49.95863" lon="2.56405">
        <ele>45.4</ele>
        <time>2013-04-14T07:06:07Z</time>
      </trkpt>
      <trkpt lat="49.95856" lon="2.56386">
        <ele>44.8</ele>
        <time>2013-04-14T07:06:17Z</time>
      </trkpt>
      <trkpt lat="49.9585" lon="2.56365">
        <ele>44.1</ele>
        <time>2013-04-14T07:06:29Z</time>
      </trkpt>
      <trkpt lat="49.95846" lon="2.56345">
        <ele>43.6</ele>
        <time>2013-04-14T07:06:37Z</time>
      </trkpt>
      <trkpt lat="49.95842" lon="2.56325">
        <ele>43</ele>
        <time>2013-04-14T07:06:47Z</time>
      </trkpt>
      <trkpt lat="49.95837" lon="2.56303">
        <ele>40.9</ele>
        <time>2013-04-14T07:06:59Z</time>
      </trkpt>
      <trkpt lat="49.9583" lon="2.56284">
        <ele>39.2</ele>
        <time>2013-04-14T07:07:09Z</time>
      </trkpt>
      <trkpt lat="49.95822" lon="2.56265">
        <ele>38.2</ele>
        <time>2013-04-14T07:07:19Z</time>
      </trkpt>
      <trkpt lat="49.95814" lon="2.56247">
        <ele>38.6</ele>
        <time>2013-04-14T07:07:28Z</time>
      </trkpt>
      <trkpt lat="49.95805" lon="2.5623">
        <ele>38.8</ele>
        <time>2013-04-14T07:07:38Z</time>
      </trkpt>
      <trkpt lat="49.958" lon="2.5621">
        <ele>38.3</ele>
        <time>2013-04-14T07:07:50Z</time>
      </trkpt>
      <trkpt lat="49.95798" lon="2.56188">
        <ele>37.7</ele>
        <time>2013-04-14T07:08:02Z</time>
      </trkpt>
      <trkpt lat="49.9579" lon="2.56168">
        <ele>37.2</ele>
        <time>2013-04-14T07:08:14Z</time>
      </trkpt>
      <trkpt lat="49.95782" lon="2.56152">
        <ele>36.9</ele>
        <time>2013-04-14T07:08:22Z</time>
      </trkpt>
      <trkpt lat="49.95783" lon="2.5613">
        <ele>36.5</ele>
        <time>2013-04-14T07:08:31Z</time>
      </trkpt>
      <trkpt lat="49.95772" lon="2.56115">
        <ele>36</ele>
        <time>2013-04-14T07:08:41Z</time>
      </trkpt>
      <trkpt lat="49.95769" lon="2.56094">
        <ele>35.6</ele>
        <time>2013-04-14T07:08:51Z</time>
      </trkpt>
      <trkpt lat="49.95767" lon="2.56073">
        <ele>35.1</ele>
        <time>2013-04-14T07:09:02Z</time>
      </trkpt>
      <trkpt lat="49.9576" lon="2.56052">
        <ele>34.6</ele>
        <time>2013-04-14T07:09:14Z</time>
      </trkpt>
      <trkpt lat="49.95758" lon="2.56047">
        <ele>34.4</ele>
        <time>2013-04-14T07:09:18Z</time>
      </trkpt>
      <trkpt lat="49.95738" lon="2.56046">
        <ele>34.4</ele>
        <time>2013-04-14T07:09:19Z</time>
      </trkpt>
      <trkpt lat="49.95726" lon="2.5604">
        <ele>34.3</ele>
        <time>2013-04-14T07:09:21Z</time>
      </trkpt>
      <trkpt lat="49.95726" lon="2.56026">
        <ele>34.1</ele>
        <time>2013-04-14T07:09:25Z</time>
      </trkpt>
      <trkpt lat="49.95739" lon="2.56014">
        <ele>33.8</ele>
        <time>2013-04-14T07:09:32Z</time>
      </trkpt>
      <trkpt lat="49.95751" lon="2.56">
        <ele>33.4</ele>
        <time>2013-04-14T07:09:41Z</time>
      </trkpt>
      <trkpt lat="49.95758" lon="2.55981">
        <ele>33</ele>
        <time>2013-04-14T07:09:49Z</time>
      </trkpt>
      <trkpt lat="49.95764" lon="2.55963">
        <ele>28.9</ele>
        <time>2013-04-14T07:09:59Z</time>
      </trkpt>
      <trkpt lat="49.95774" lon="2.55947">
        <ele>31.9</ele>
        <time>2013-04-14T07:10:09Z</time>
      </trkpt>
      <trkpt lat="49.95782" lon="2.55929">
        <ele>35</ele>
        <time>2013-04-14T07:10:19Z</time>
      </trkpt>
      <trkpt lat="49.95779" lon="2.55904">
        <ele>36.3</ele>
        <time>2013-04-14T07:10:27Z</time>
      </trkpt>
      <trkpt lat="49.95774" lon="2.55882">
        <ele>37</ele>
        <time>2013-04-14T07:10:31Z</time>
      </trkpt>
      <trkpt lat="49.95784" lon="2.55866">
        <ele>38</ele>
        <time>2013-04-14T07:10:46Z</time>
      </trkpt>
      <trkpt lat="49.95785" lon="2.55843">
        <ele>38</ele>
        <time>2013-04-14T07:11:00Z</time>
      </trkpt>
      <trkpt lat="49.95784" lon="2.55821">
        <ele>38</ele>
        <time>2013-04-14T07:11:14Z</time>
      </trkpt>
      <trkpt lat="49.95787" lon="2.558">
        <ele>38.1</ele>
        <time>2013-04-14T07:11:24Z</time>
      </trkpt>
      <trkpt lat="49.95778" lon="2.55783">
        <ele>38.4</ele>
        <time>2013-04-14T07:11:30Z</time>
      </trkpt>
      <trkpt lat="49.95771" lon="2.55765">
        <ele>39</ele>
        <time>2013-04-14T07:11:42Z</time>
      </trkpt>
      <trkpt lat="49.9577" lon="2.55743">
        <ele>39.5</ele>
        <time>2013-04-14T07:11:54Z</time>
      </trkpt>
      <trkpt lat="49.95767" lon="2.55722">
        <ele>40.1</ele>
        <time>2013-04-14T07:12:07Z</time>
      </trkpt>
      <trkpt lat="49.95761" lon="2.55703">
        <ele>40.5</ele>
        <time>2013-04-14T07:12:15Z</time>
      </trkpt>
      <trkpt lat="49.95754" lon="2.55684">
        <ele>41</ele>
        <time>2013-04-14T07:12:25Z</time>
      </trkpt>
      <trkpt lat="49.95751" lon="2.55663">
        <ele>38.3</ele>
        <time>2013-04-14T07:12:36Z</time>
      </trkpt>
      <trkpt lat="49.95747" lon="2.55642">
        <ele>37.8</ele>
        <time>2013-04-14T07:12:47Z</time>
      </trkpt>
      <trkpt lat="49.95744" lon="2.5562">
        <ele>37.5</ele>
        <time>2013-04-14T07:12:58Z</time>
      </trkpt>
      <trkpt lat="49.95734" lon="2.55603">
        <ele>37.2</ele>
        <time>2013-04-14T07:13:08Z</time>
      </trkpt>
      <trkpt lat="49.95726" lon="2.55586">
        <ele>37</ele>
        <time>2013-04-14T07:13:17Z</time>
      </trkpt>
      <trkpt lat="49.95722" lon="2.55565">
        <ele>36.7</ele>
        <time>2013-04-14T07:13:30Z</time>
      </trkpt>
      <trkpt lat="49.95716" lon="2.55545">
        <ele>36.4</ele>
        <time>2013-04-14T07:13:41Z</time>
      </trkpt>
      <trkpt lat="49.9571" lon="2.55525">
        <ele>36.2</ele>
        <time>2013-04-14T07:13:52Z</time>
      </trkpt>
      <trkpt lat="49.95704" lon="2.55505">
        <ele>35.9</ele>
        <time>2013-04-14T07:14:02Z</time>
      </trkpt>
      <trkpt lat="49.95699" lon="2.55485">
        <ele>35.7</ele>
        <time>2013-04-14T07:14:13Z</time>
      </trkpt>
      <trkpt lat="49.95692" lon="2.55464">
        <ele>35.4</ele>
        <time>2013-04-14T07:14:23Z</time>
      </trkpt>
      <trkpt lat="49.95686" lon="2.55444">
        <ele>35.1</ele>
        <time>2013-04-14T07:14:34Z</time>
      </trkpt>
      <trkpt lat="49.95685" lon="2.55422">
        <ele>35.2</ele>
        <time>2013-04-14T07:14:47Z</time>
      </trkpt>
      <trkpt lat="49.95677" lon="2.55403">
        <ele>35.5</ele>
        <time>2013-04-14T07:14:57Z</time>
      </trkpt>
      <trkpt lat="49.95671" lon="2.55384">
        <ele>35.7</ele>
        <time>2013-04-14T07:15:06Z</time>
      </trkpt>
      <trkpt lat="49.95667" lon="2.55363">
        <ele>36</ele>
        <time>2013-04-14T07:15:15Z</time>
      </trkpt>
      <trkpt lat="49.95662" lon="2.55343">
        <ele>36.3</ele>
        <time>2013-04-14T07:15:24Z</time>
      </trkpt>
      <trkpt lat="49.95657" lon="2.55322">
        <ele>36.6</ele>
        <time>2013-04-14T07:15:36Z</time>
      </trkpt>
      <trkpt lat="49.9565" lon="2.55304">
        <ele>36.9</ele>
        <time>2013-04-14T07:15:46Z</time>
      </trkpt>
      <trkpt lat="49.95649" lon="2.55282">
        <ele>37.2</ele>
        <time>2013-04-14T07:15:58Z</time>
      </trkpt>
      <trkpt lat="49.95641" lon="2.55261">
        <ele>37.5</ele>
        <time>2013-04-14T07:16:09Z</time>
      </trkpt>
      <trkpt lat="49.95641" lon="2.55239">
        <ele>38</ele>
        <time>2013-04-14T07:16:24Z</time>
      </trkpt>
      <trkpt lat="49.9563" lon="2.55224">
        <ele>35</ele>
        <time>2013-04-14T07:16:31Z</time>
      </trkpt>
      <trkpt lat="49.95621" lon="2.55205">
        <ele>35.7</ele>
        <time>2013-04-14T07:16:40Z</time>
      </trkpt>
      <trkpt lat="49.95616" lon="2.55184">
        <ele>36.5</ele>
        <time>2013-04-14T07:16:50Z</time>
      </trkpt>
      <trkpt lat="49.9561" lon="2.55163">
        <ele>37.4</ele>
        <time>2013-04-14T07:17:02Z</time>
      </trkpt>
      <trkpt lat="49.95604" lon="2.55144">
        <ele>37.6</ele>
        <time>2013-04-14T07:17:12Z</time>
      </trkpt>
      <trkpt lat="49.95599" lon="2.55122">
        <ele>36.1</ele>
        <time>2013-04-14T07:17:24Z</time>
      </trkpt>
      <trkpt lat="49.95597" lon="2.55101">
        <ele>35.9</ele>
        <time>2013-04-14T07:17:37Z</time>
      </trkpt>
      <trkpt lat="49.95588" lon="2.55083">
        <ele>36.9</ele>
        <time>2013-04-14T07:17:43Z</time>
      </trkpt>
      <trkpt lat="49.95584" lon="2.55063">
        <ele>37.1</ele>
        <time>2013-04-14T07:18:02Z</time>
      </trkpt>
      <trkpt lat="49.95584" lon="2.55041">
        <ele>33</ele>
        <time>2013-04-14T07:18:13Z</time>
      </trkpt>
      <trkpt lat="49.95578" lon="2.55021">
        <ele>31.2</ele>
        <time>2013-04-14T07:18:23Z</time>
      </trkpt>
      <trkpt lat="49.95571" lon="2.55">
        <ele>31.5</ele>
        <time>2013-04-14T07:18:33Z</time>
      </trkpt>
      <trkpt lat="49.95564" lon="2.54981">
        <ele>31.8</ele>
        <time>2013-04-14T07:18:42Z</time>
      </trkpt>
      <trkpt lat="49.95558" lon="2.54962">
        <ele>32</ele>
        <time>2013-04-14T07:18:49Z</time>
      </trkpt>
      <trkpt lat="49.95554" lon="2.5494">
        <ele>32.5</ele>
        <time>2013-04-14T07:19:02Z</time>
      </trkpt>
      <trkpt lat="49.95548" lon="2.54921">
        <ele>33</ele>
        <time>2013-04-14T07:19:16Z</time>
      </trkpt>
      <trkpt lat="49.95541" lon="2.54901">
        <ele>33.2</ele>
        <time>2013-04-14T07:19:24Z</time>
      </trkpt>
      <trkpt lat="49.95543" lon="2.54894">
        <ele>33.5</ele>
        <time>2013-04-14T07:19:31Z</time>
      </trkpt>
      <trkpt lat="49.95535" lon="2.54877">
        <ele>33.7</ele>
        <time>2013-04-14T07:19:37Z</time>
      </trkpt>
      <trkpt lat="49.95526" lon="2.54858">
        <ele>34</ele>
        <time>2013-04-14T07:19:46Z</time>
      </trkpt>
      <trkpt lat="49.95524" lon="2.54836">
        <ele>32.8</ele>
        <time>2013-04-14T07:19:58Z</time>
      </trkpt>
      <trkpt lat="49.95518" lon="2.54816">
        <ele>31.4</ele>
        <time>2013-04-14T07:20:11Z</time>
      </trkpt>
      <trkpt lat="49.9551" lon="2.54797">
        <ele>32.3</ele>
        <time>2013-04-14T07:20:22Z</time>
      </trkpt>
      <trkpt lat="49.95508" lon="2.54775">
        <ele>33.7</ele>
        <time>2013-04-14T07:20:36Z</time>
      </trkpt>
      <trkpt lat="49.955" lon="2.54758">
        <ele>33.3</ele>
        <time>2013-04-14T07:20:44Z</time>
      </trkpt>
      <trkpt lat="49.95494" lon="2.54738">
        <ele>32.7</ele>
        <time>2013-04-14T07:20:54Z</time>
      </trkpt>
      <trkpt lat="49.95489" lon="2.54717">
        <ele>32.2</ele>
        <time>2013-04-14T07:21:03Z</time>
      </trkpt>
      <trkpt lat="49.95483" lon="2.54697">
        <ele>31.6</ele>
        <time>2013-04-14T07:21:15Z</time>
      </trkpt>
      <trkpt lat="49.95478" lon="2.54675">
        <ele>32</ele>
        <time>2013-04-14T07:21:29Z</time>
      </trkpt>
      <trkpt lat="49.95471" lon="2.54656">
        <ele>33.8</ele>
        <time>2013-04-14T07:21:39Z</time>
      </trkpt>
      <trkpt lat="49.95464" lon="2.54638">
        <ele>32.7</ele>
        <time>2013-04-14T07:21:51Z</time>
      </trkpt>
      <trkpt lat="49.95461" lon="2.54617">
        <ele>31.7</ele>
        <time>2013-04-14T07:22:02Z</time>
      </trkpt>
      <trkpt lat="49.95456" lon="2.54597">
        <ele>29.8</ele>
        <time>2013-04-14T07:22:13Z</time>
      </trkpt>
      <trkpt lat="49.95451" lon="2.54577">
        <ele>26.2</ele>
        <time>2013-04-14T07:22:26Z</time>
      </trkpt>
      <trkpt lat="49.95441" lon="2.5456">
        <ele>28.1</ele>
        <time>2013-04-14T07:22:34Z</time>
      </trkpt>
      <trkpt lat="49.95441" lon="2.54539">
        <ele>30.6</ele>
        <time>2013-04-14T07:22:45Z</time>
      </trkpt>
      <trkpt lat="49.95436" lon="2.54518">
        <ele>32.8</ele>
        <time>2013-04-14T07:22:57Z</time>
      </trkpt>
      <trkpt lat="49.95428" lon="2.54501">
        <ele>34.3</ele>
        <time>2013-04-14T07:23:06Z</time>
      </trkpt>
      <trkpt lat="49.95422" lon="2.5448">
        <ele>35.9</ele>
        <time>2013-04-14T07:23:15Z</time>
      </trkpt>
      <trkpt lat="49.95418" lon="2.54459">
        <ele>37.5</ele>
        <time>2013-04-14T07:23:25Z</time>
      </trkpt>
      <trkpt lat="49.95411" lon="2.54438">
        <ele>38.6</ele>
        <time>2013-04-14T07:23:34Z</time>
      </trkpt>
      <trkpt lat="49.95403" lon="2.5442">
        <ele>40.5</ele>
        <time>2013-04-14T07:23:46Z</time>
      </trkpt>
      <trkpt lat="49.95401" lon="2.54399">
        <ele>42.2</ele>
        <time>2013-04-14T07:24:01Z</time>
      </trkpt>
      <trkpt lat="49.95393" lon="2.5438">
        <ele>41.3</ele>
        <time>2013-04-14T07:24:11Z</time>
      </trkpt>
      <trkpt lat="49.95384" lon="2.54363">
        <ele>38.6</ele>
        <time>2013-04-14T07:24:21Z</time>
      </trkpt>
      <trkpt lat="49.95384" lon="2.5434">
        <ele>36.6</ele>
        <time>2013-04-14T07:24:31Z</time>
      </trkpt>
      <trkpt lat="49.95381" lon="2.5432">
        <ele>35.7</ele>
        <time>2013-04-14T07:24:44Z</time>
      </trkpt>
      <trkpt lat="49.95383" lon="2.54298">
        <ele>35.1</ele>
        <time>2013-04-14T07:24:53Z</time>
      </trkpt>
      <trkpt lat="49.95387" lon="2.54278">
        <ele>35.8</ele>
        <time>2013-04-14T07:25:05Z</time>
      </trkpt>
      <trkpt lat="49.95396" lon="2.54262">
        <ele>35.4</ele>
        <time>2013-04-14T07:25:15Z</time>
      </trkpt>
      <trkpt lat="49.95399" lon="2.54241">
        <ele>34.7</ele>
        <time>2013-04-14T07:25:30Z</time>
      </trkpt>
      <trkpt lat="49.95403" lon="2.54221">
        <ele>34.3</ele>
        <time>2013-04-14T07:25:41Z</time>
      </trkpt>
      <trkpt lat="49.954" lon="2.542">
        <ele>33.8</ele>
        <time>2013-04-14T07:25:51Z</time>
      </trkpt>
      <trkpt lat="49.95389" lon="2.54185">
        <ele>33.5</ele>
        <time>2013-04-14T07:25:59Z</time>
      </trkpt>
      <trkpt lat="49.9538" lon="2.54168">
        <ele>33.1</ele>
        <time>2013-04-14T07:26:08Z</time>
      </trkpt>
      <trkpt lat="49.95377" lon="2.54147">
        <ele>32.6</ele>
        <time>2013-04-14T07:26:21Z</time>
      </trkpt>
      <trkpt lat="49.9537" lon="2.54127">
        <ele>31.7</ele>
        <time>2013-04-14T07:26:35Z</time>
      </trkpt>
      <trkpt lat="49.95362" lon="2.54109">
        <ele>28.7</ele>
        <time>2013-04-14T07:26:43Z</time>
      </trkpt>
      <trkpt lat="49.95357" lon="2.54088">
        <ele>31.6</ele>
        <time>2013-04-14T07:26:54Z</time>
      </trkpt>
      <trkpt lat="49.95348" lon="2.54072">
        <ele>35.5</ele>
        <time>2013-04-14T07:27:03Z</time>
      </trkpt>
      <trkpt lat="49.95342" lon="2.54051">
        <ele>33</ele>
        <time>2013-04-14T07:27:12Z</time>
      </trkpt>
      <trkpt lat="49.95334" lon="2.54032">
        <ele>31</ele>
        <time>2013-04-14T07:27:25Z</time>
      </trkpt>
      <trkpt lat="49.95322" lon="2.54022">
        <ele>32.9</ele>
        <time>2013-04-14T07:27:39Z</time>
      </trkpt>
      <trkpt lat="49.95315" lon="2.54">
        <ele>30.7</ele>
        <time>2013-04-14T07:27:48Z</time>
      </trkpt>
      <trkpt lat="49.95308" lon="2.53981">
        <ele>28</ele>
        <time>2013-04-14T07:27:57Z</time>
      </trkpt>
      <trkpt lat="49.95299" lon="2.53968">
        <ele>29.3</ele>
        <time>2013-04-14T07:28:04Z</time>
      </trkpt>
      <trkpt lat="49.95297" lon="2.53946">
        <ele>31.6</ele>
        <time>2013-04-14T07:28:15Z</time>
      </trkpt>
      <trkpt lat="49.95291" lon="2.53926">
        <ele>34.9</ele>
        <time>2013-04-14T07:28:27Z</time>
      </trkpt>
      <trkpt lat="49.95282" lon="2.53908">
        <ele>34.3</ele>
        <time>2013-04-14T07:28:37Z</time>
      </trkpt>
      <trkpt lat="49.95274" lon="2.5389">
        <ele>33.5</ele>
        <time>2013-04-14T07:28:50Z</time>
      </trkpt>
      <trkpt lat="49.95273" lon="2.53868">
        <ele>32.6</ele>
        <time>2013-04-14T07:29:05Z</time>
      </trkpt>
      <trkpt lat="49.95275" lon="2.53859">
        <ele>30.6</ele>
        <time>2013-04-14T07:29:34Z</time>
      </trkpt>
      <trkpt lat="49.95275" lon="2.53859">
        <ele>30.6</ele>
        <time>2013-04-14T07:30:28Z</time>
      </trkpt>
      <trkpt lat="49.95272" lon="2.53846">
        <ele>29.3</ele>
        <time>2013-04-14T07:30:30Z</time>
      </trkpt>
      <trkpt lat="49.95279" lon="2.53827">
        <ele>29.5</ele>
        <time>2013-04-14T07:30:49Z</time>
      </trkpt>
      <trkpt lat="49.95288" lon="2.5381">
        <ele>30.2</ele>
        <time>2013-04-14T07:31:02Z</time>
      </trkpt>
      <trkpt lat="49.95298" lon="2.53795">
        <ele>30.7</ele>
        <time>2013-04-14T07:31:12Z</time>
      </trkpt>
      <trkpt lat="49.95301" lon="2.53773">
        <ele>31.1</ele>
        <time>2013-04-14T07:31:20Z</time>
      </trkpt>
      <trkpt lat="49.95308" lon="2.53753">
        <ele>31.7</ele>
        <time>2013-04-14T07:31:32Z</time>
      </trkpt>
      <trkpt lat="49.9532" lon="2.53739">
        <ele>33.5</ele>
        <time>2013-04-14T07:31:41Z</time>
      </trkpt>
      <trkpt lat="49.95325" lon="2.5372">
        <ele>36</ele>
        <time>2013-04-14T07:31:48Z</time>
      </trkpt>
      <trkpt lat="49.95335" lon="2.53712">
        <ele>36</ele>
        <time>2013-04-14T07:31:54Z</time>
      </trkpt>
      <trkpt lat="49.95322" lon="2.53704">
        <ele>35.1</ele>
        <time>2013-04-14T07:32:05Z</time>
      </trkpt>
      <trkpt lat="49.95312" lon="2.5368">
        <ele>34</ele>
        <time>2013-04-14T07:32:19Z</time>
      </trkpt>
      <trkpt lat="49.95319" lon="2.5366">
        <ele>33</ele>
        <time>2013-04-14T07:32:32Z</time>
      </trkpt>
      <trkpt lat="49.95332" lon="2.53653">
        <ele>35.7</ele>
        <time>2013-04-14T07:32:42Z</time>
      </trkpt>
      <trkpt lat="49.95335" lon="2.53651">
        <ele>32</ele>
        <time>2013-04-14T07:32:49Z</time>
      </trkpt>
      <trkpt lat="49.95347" lon="2.53661">
        <ele>33</ele>
        <time>2013-04-14T07:32:56Z</time>
      </trkpt>
      <trkpt lat="49.9536" lon="2.53657">
        <ele>33.9</ele>
        <time>2013-04-14T07:33:03Z</time>
      </trkpt>
      <trkpt lat="49.95368" lon="2.53636">
        <ele>35</ele>
        <time>2013-04-14T07:33:11Z</time>
      </trkpt>
      <trkpt lat="49.95375" lon="2.53618">
        <ele>34.3</ele>
        <time>2013-04-14T07:33:21Z</time>
      </trkpt>
      <trkpt lat="49.95388" lon="2.53613">
        <ele>33.4</ele>
        <time>2013-04-14T07:33:34Z</time>
      </trkpt>
      <trkpt lat="49.954" lon="2.53622">
        <ele>32.6</ele>
        <time>2013-04-14T07:33:45Z</time>
      </trkpt>
      <trkpt lat="49.9541" lon="2.53604">
        <ele>32</ele>
        <time>2013-04-14T07:33:54Z</time>
      </trkpt>
      <trkpt lat="49.95417" lon="2.53584">
        <ele>33.6</ele>
        <time>2013-04-14T07:34:00Z</time>
      </trkpt>
      <trkpt lat="49.95421" lon="2.53562">
        <ele>35.7</ele>
        <time>2013-04-14T07:34:08Z</time>
      </trkpt>
      <trkpt lat="49.95424" lon="2.53541">
        <ele>37.5</ele>
        <time>2013-04-14T07:34:15Z</time>
      </trkpt>
      <trkpt lat="49.95439" lon="2.5354">
        <ele>40</ele>
        <time>2013-04-14T07:34:25Z</time>
      </trkpt>
      <trkpt lat="49.95451" lon="2.53526">
        <ele>42.6</ele>
        <time>2013-04-14T07:34:35Z</time>
      </trkpt>
      <trkpt lat="49.95456" lon="2.53506">
        <ele>44.1</ele>
        <time>2013-04-14T07:34:44Z</time>
      </trkpt>
      <trkpt lat="49.95467" lon="2.53494">
        <ele>44.5</ele>
        <time>2013-04-14T07:34:58Z</time>
      </trkpt>
      <trkpt lat="49.95478" lon="2.53482">
        <ele>44.9</ele>
        <time>2013-04-14T07:35:13Z</time>
      </trkpt>
      <trkpt lat="49.95486" lon="2.53463">
        <ele>47.5</ele>
        <time>2013-04-14T07:35:24Z</time>
      </trkpt>
      <trkpt lat="49.95495" lon="2.53448">
        <ele>51.5</ele>
        <time>2013-04-14T07:35:37Z</time>
      </trkpt>
      <trkpt lat="49.95507" lon="2.53432">
        <ele>56.3</ele>
        <time>2013-04-14T07:35:47Z</time>
      </trkpt>
      <trkpt lat="49.95514" lon="2.53412">
        <ele>57.4</ele>
        <time>2013-04-14T07:35:57Z</time>
      </trkpt>
      <trkpt lat="49.95527" lon="2.53405">
        <ele>58.7</ele>
        <time>2013-04-14T07:36:09Z</time>
      </trkpt>
      <trkpt lat="49.95539" lon="2.53392">
        <ele>60</ele>
        <time>2013-04-14T07:36:21Z</time>
      </trkpt>
      <trkpt lat="49.95551" lon="2.53382">
        <ele>62.9</ele>
        <time>2013-04-14T07:36:33Z</time>
      </trkpt>
      <trkpt lat="49.95564" lon="2.53379">
        <ele>62.2</ele>
        <time>2013-04-14T07:36:45Z</time>
      </trkpt>
      <trkpt lat="49.95575" lon="2.53364">
        <ele>62.6</ele>
        <time>2013-04-14T07:36:56Z</time>
      </trkpt>
      <trkpt lat="49.95585" lon="2.53347">
        <ele>65.1</ele>
        <time>2013-04-14T07:37:06Z</time>
      </trkpt>
      <trkpt lat="49.95598" lon="2.53343">
        <ele>69</ele>
        <time>2013-04-14T07:37:21Z</time>
      </trkpt>
      <trkpt lat="49.95609" lon="2.53331">
        <ele>69</ele>
        <time>2013-04-14T07:37:31Z</time>
      </trkpt>
      <trkpt lat="49.95623" lon="2.53327">
        <ele>71.1</ele>
        <time>2013-04-14T07:37:44Z</time>
      </trkpt>
      <trkpt lat="49.95637" lon="2.53322">
        <ele>71.7</ele>
        <time>2013-04-14T07:37:56Z</time>
      </trkpt>
      <trkpt lat="49.9565" lon="2.53316">
        <ele>72.5</ele>
        <time>2013-04-14T07:38:06Z</time>
      </trkpt>
      <trkpt lat="49.95663" lon="2.53307">
        <ele>74.5</ele>
        <time>2013-04-14T07:38:17Z</time>
      </trkpt>
      <trkpt lat="49.95676" lon="2.53298">
        <ele>75.4</ele>
        <time>2013-04-14T07:38:27Z</time>
      </trkpt>
      <trkpt lat="49.9569" lon="2.53293">
        <ele>75.9</ele>
        <time>2013-04-14T07:38:37Z</time>
      </trkpt>
      <trkpt lat="49.95705" lon="2.53292">
        <ele>76.7</ele>
        <time>2013-04-14T07:38:52Z</time>
      </trkpt>
      <trkpt lat="49.95719" lon="2.5329">
        <ele>77.3</ele>
        <time>2013-04-14T07:39:03Z</time>
      </trkpt>
      <trkpt lat="49.95733" lon="2.53287">
        <ele>77.7</ele>
        <time>2013-04-14T07:39:11Z</time>
      </trkpt>
      <trkpt lat="49.95746" lon="2.53285">
        <ele>78.2</ele>
        <time>2013-04-14T07:39:21Z</time>
      </trkpt>
      <trkpt lat="49.95759" lon="2.53279">
        <ele>78.8</ele>
        <time>2013-04-14T07:39:32Z</time>
      </trkpt>
      <trkpt lat="49.95774" lon="2.53275">
        <ele>79.2</ele>
        <time>2013-04-14T07:39:40Z</time>
      </trkpt>
      <trkpt lat="49.95788" lon="2.53271">
        <ele>79.7</ele>
        <time>2013-04-14T07:39:50Z</time>
      </trkpt>
      <trkpt lat="49.95802" lon="2.53265">
        <ele>80.2</ele>
        <time>2013-04-14T07:40:01Z</time>
      </trkpt>
      <trkpt lat="49.95816" lon="2.53262">
        <ele>80.7</ele>
        <time>2013-04-14T07:40:11Z</time>
      </trkpt>
      <trkpt lat="49.95829" lon="2.53256">
        <ele>81.2</ele>
        <time>2013-04-14T07:40:22Z</time>
      </trkpt>
      <trkpt lat="49.95842" lon="2.53253">
        <ele>81.9</ele>
        <time>2013-04-14T07:40:37Z</time>
      </trkpt>
      <trkpt lat="49.95855" lon="2.53245">
        <ele>83.3</ele>
        <time>2013-04-14T07:40:49Z</time>
      </trkpt>
      <trkpt lat="49.95869" lon="2.53239">
        <ele>84.5</ele>
        <time>2013-04-14T07:41:00Z</time>
      </trkpt>
      <trkpt lat="49.95882" lon="2.53233">
        <ele>83.9</ele>
        <time>2013-04-14T07:41:10Z</time>
      </trkpt>
      <trkpt lat="49.95895" lon="2.53229">
        <ele>82.3</ele>
        <time>2013-04-14T07:41:18Z</time>
      </trkpt>
      <trkpt lat="49.95908" lon="2.53218">
        <ele>84.9</ele>
        <time>2013-04-14T07:41:28Z</time>
      </trkpt>
      <trkpt lat="49.95921" lon="2.53208">
        <ele>87.1</ele>
        <time>2013-04-14T07:41:39Z</time>
      </trkpt>
      <trkpt lat="49.95933" lon="2.53198">
        <ele>87.7</ele>
        <time>2013-04-14T07:41:51Z</time>
      </trkpt>
      <trkpt lat="49.95946" lon="2.53188">
        <ele>88.2</ele>
        <time>2013-04-14T07:42:03Z</time>
      </trkpt>
      <trkpt lat="49.95959" lon="2.5318">
        <ele>88.7</ele>
        <time>2013-04-14T07:42:13Z</time>
      </trkpt>
      <trkpt lat="49.95972" lon="2.53172">
        <ele>89.1</ele>
        <time>2013-04-14T07:42:22Z</time>
      </trkpt>
      <trkpt lat="49.95986" lon="2.53164">
        <ele>89.5</ele>
        <time>2013-04-14T07:42:33Z</time>
      </trkpt>
      <trkpt lat="49.95999" lon="2.53154">
        <ele>90</ele>
        <time>2013-04-14T07:42:43Z</time>
      </trkpt>
      <trkpt lat="49.96012" lon="2.53147">
        <ele>89.6</ele>
        <time>2013-04-14T07:42:54Z</time>
      </trkpt>
      <trkpt lat="49.96026" lon="2.53139">
        <ele>89.1</ele>
        <time>2013-04-14T07:43:05Z</time>
      </trkpt>
      <trkpt lat="49.96038" lon="2.5313">
        <ele>88.7</ele>
        <time>2013-04-14T07:43:15Z</time>
      </trkpt>
      <trkpt lat="49.96052" lon="2.53123">
        <ele>88.2</ele>
        <time>2013-04-14T07:43:27Z</time>
      </trkpt>
      <trkpt lat="49.96065" lon="2.53114">
        <ele>87.9</ele>
        <time>2013-04-14T07:43:36Z</time>
      </trkpt>
      <trkpt lat="49.96078" lon="2.53107">
        <ele>87.4</ele>
        <time>2013-04-14T07:43:48Z</time>
      </trkpt>
      <trkpt lat="49.96092" lon="2.53098">
        <ele>87</ele>
        <time>2013-04-14T07:43:59Z</time>
      </trkpt>
      <trkpt lat="49.96105" lon="2.53089">
        <ele>87.3</ele>
        <time>2013-04-14T07:44:10Z</time>
      </trkpt>
      <trkpt lat="49.96118" lon="2.53081">
        <ele>87.5</ele>
        <time>2013-04-14T07:44:20Z</time>
      </trkpt>
      <trkpt lat="49.96131" lon="2.53075">
        <ele>87.7</ele>
        <time>2013-04-14T07:44:29Z</time>
      </trkpt>
      <trkpt lat="49.96144" lon="2.53068">
        <ele>87.9</ele>
        <time>2013-04-14T07:44:40Z</time>
      </trkpt>
      <trkpt lat="49.96158" lon="2.53061">
        <ele>88.2</ele>
        <time>2013-04-14T07:44:52Z</time>
      </trkpt>
      <trkpt lat="49.96171" lon="2.53054">
        <ele>88.4</ele>
        <time>2013-04-14T07:45:02Z</time>
      </trkpt>
      <trkpt lat="49.96185" lon="2.53049">
        <ele>88.6</ele>
        <time>2013-04-14T07:45:12Z</time>
      </trkpt>
      <trkpt lat="49.962" lon="2.53044">
        <ele>88.9</ele>
        <time>2013-04-14T07:45:23Z</time>
      </trkpt>
      <trkpt lat="49.96214" lon="2.5304">
        <ele>89.1</ele>
        <time>2013-04-14T07:45:33Z</time>
      </trkpt>
      <trkpt lat="49.96229" lon="2.53036">
        <ele>89.4</ele>
        <time>2013-04-14T07:45:44Z</time>
      </trkpt>
      <trkpt lat="49.96242" lon="2.53032">
        <ele>89.6</ele>
        <time>2013-04-14T07:45:54Z</time>
      </trkpt>
      <trkpt lat="49.96255" lon="2.53027">
        <ele>89.8</ele>
        <time>2013-04-14T07:46:05Z</time>
      </trkpt>
      <trkpt lat="49.96269" lon="2.53021">
        <ele>89.7</ele>
        <time>2013-04-14T07:46:16Z</time>
      </trkpt>
      <trkpt lat="49.96284" lon="2.53016">
        <ele>88.6</ele>
        <time>2013-04-14T07:46:26Z</time>
      </trkpt>
      <trkpt lat="49.96298" lon="2.5301">
        <ele>87.4</ele>
        <time>2013-04-14T07:46:37Z</time>
      </trkpt>
      <trkpt lat="49.96311" lon="2.53005">
        <ele>86.7</ele>
        <time>2013-04-14T07:46:47Z</time>
      </trkpt>
      <trkpt lat="49.96325" lon="2.53001">
        <ele>86</ele>
        <time>2013-04-14T07:46:58Z</time>
      </trkpt>
      <trkpt lat="49.96339" lon="2.52997">
        <ele>85.4</ele>
        <time>2013-04-14T07:47:08Z</time>
      </trkpt>
      <trkpt lat="49.96353" lon="2.52992">
        <ele>84.8</ele>
        <time>2013-04-14T07:47:19Z</time>
      </trkpt>
      <trkpt lat="49.96367" lon="2.52987">
        <ele>84.2</ele>
        <time>2013-04-14T07:47:29Z</time>
      </trkpt>
      <trkpt lat="49.96381" lon="2.52982">
        <ele>85</ele>
        <time>2013-04-14T07:47:39Z</time>
      </trkpt>
      <trkpt lat="49.96395" lon="2.52977">
        <ele>87.1</ele>
        <time>2013-04-14T07:47:51Z</time>
      </trkpt>
      <trkpt lat="49.96409" lon="2.52969">
        <ele>87.5</ele>
        <time>2013-04-14T07:48:00Z</time>
      </trkpt>
      <trkpt lat="49.96424" lon="2.52964">
        <ele>88.1</ele>
        <time>2013-04-14T07:48:11Z</time>
      </trkpt>
      <trkpt lat="49.96437" lon="2.52956">
        <ele>88.7</ele>
        <time>2013-04-14T07:48:23Z</time>
      </trkpt>
      <trkpt lat="49.96451" lon="2.5295">
        <ele>89.2</ele>
        <time>2013-04-14T07:48:33Z</time>
      </trkpt>
      <trkpt lat="49.96465" lon="2.52945">
        <ele>89.7</ele>
        <time>2013-04-14T07:48:44Z</time>
      </trkpt>
      <trkpt lat="49.96477" lon="2.52936">
        <ele>90.5</ele>
        <time>2013-04-14T07:48:55Z</time>
      </trkpt>
      <trkpt lat="49.9649" lon="2.52926">
        <ele>91.9</ele>
        <time>2013-04-14T07:49:07Z</time>
      </trkpt>
      <trkpt lat="49.96503" lon="2.52917">
        <ele>93.1</ele>
        <time>2013-04-14T07:49:18Z</time>
      </trkpt>
      <trkpt lat="49.96517" lon="2.52909">
        <ele>94.3</ele>
        <time>2013-04-14T07:49:29Z</time>
      </trkpt>
      <trkpt lat="49.96529" lon="2.52899">
        <ele>94.6</ele>
        <time>2013-04-14T07:49:39Z</time>
      </trkpt>
      <trkpt lat="49.96542" lon="2.52889">
        <ele>94.5</ele>
        <time>2013-04-14T07:49:50Z</time>
      </trkpt>
      <trkpt lat="49.96555" lon="2.5288">
        <ele>95.6</ele>
        <time>2013-04-14T07:50:00Z</time>
      </trkpt>
      <trkpt lat="49.96567" lon="2.52871">
        <ele>96.8</ele>
        <time>2013-04-14T07:50:11Z</time>
      </trkpt>
      <trkpt lat="49.9658" lon="2.52862">
        <ele>98.4</ele>
        <time>2013-04-14T07:50:24Z</time>
      </trkpt>
      <trkpt lat="49.96593" lon="2.52853">
        <ele>99.9</ele>
        <time>2013-04-14T07:50:35Z</time>
      </trkpt>
      <trkpt lat="49.96604" lon="2.52843">
        <ele>100.8</ele>
        <time>2013-04-14T07:50:46Z</time>
      </trkpt>
      <trkpt lat="49.96617" lon="2.52833">
        <ele>100</ele>
        <time>2013-04-14T07:50:57Z</time>
      </trkpt>
      <trkpt lat="49.96629" lon="2.52822">
        <ele>99.1</ele>
        <time>2013-04-14T07:51:09Z</time>
      </trkpt>
      <trkpt lat="49.96655" lon="2.5279">
        <ele>99.7</ele>
        <time>2013-04-14T07:51:23Z</time>
      </trkpt>
      <trkpt lat="49.96655" lon="2.5279">
        <ele>99.7</ele>
        <time>2013-04-14T07:57:30Z</time>
      </trkpt>
      <trkpt lat="49.9667" lon="2.52768">
        <ele>100.9</ele>
        <time>2013-04-14T07:57:31Z</time>
      </trkpt>
      <trkpt lat="49.96681" lon="2.52754">
        <ele>99.7</ele>
        <time>2013-04-14T07:57:40Z</time>
      </trkpt>
      <trkpt lat="49.96691" lon="2.5274">
        <ele>98.4</ele>
        <time>2013-04-14T07:57:51Z</time>
      </trkpt>
      <trkpt lat="49.96702" lon="2.52725">
        <ele>97</ele>
        <time>2013-04-14T07:58:02Z</time>
      </trkpt>
      <trkpt lat="49.96712" lon="2.52711">
        <ele>99.7</ele>
        <time>2013-04-14T07:58:12Z</time>
      </trkpt>
      <trkpt lat="49.96722" lon="2.52695">
        <ele>97.2</ele>
        <time>2013-04-14T07:58:21Z</time>
      </trkpt>
      <trkpt lat="49.96733" lon="2.52681">
        <ele>98.4</ele>
        <time>2013-04-14T07:58:31Z</time>
      </trkpt>
      <trkpt lat="49.96742" lon="2.52663">
        <ele>100.1</ele>
        <time>2013-04-14T07:58:45Z</time>
      </trkpt>
      <trkpt lat="49.96751" lon="2.52647">
        <ele>101</ele>
        <time>2013-04-14T07:58:53Z</time>
      </trkpt>
      <trkpt lat="49.9676" lon="2.52632">
        <ele>98</ele>
        <time>2013-04-14T07:59:05Z</time>
      </trkpt>
      <trkpt lat="49.96765" lon="2.52618">
        <ele>98.8</ele>
        <time>2013-04-14T07:59:11Z</time>
      </trkpt>
      <trkpt lat="49.96772" lon="2.52618">
        <ele>101.3</ele>
        <time>2013-04-14T07:59:22Z</time>
      </trkpt>
      <trkpt lat="49.96782" lon="2.52602">
        <ele>99.8</ele>
        <time>2013-04-14T07:59:31Z</time>
      </trkpt>
      <trkpt lat="49.96793" lon="2.52588">
        <ele>97.9</ele>
        <time>2013-04-14T07:59:38Z</time>
      </trkpt>
      <trkpt lat="49.96803" lon="2.52572">
        <ele>98</ele>
        <time>2013-04-14T07:59:47Z</time>
      </trkpt>
      <trkpt lat="49.96813" lon="2.52555">
        <ele>99.6</ele>
        <time>2013-04-14T07:59:56Z</time>
      </trkpt>
      <trkpt lat="49.96823" lon="2.52539">
        <ele>99</ele>
        <time>2013-04-14T08:00:11Z</time>
      </trkpt>
      <trkpt lat="49.96832" lon="2.52521">
        <ele>98.2</ele>
        <time>2013-04-14T08:00:22Z</time>
      </trkpt>
      <trkpt lat="49.96841" lon="2.52505">
        <ele>97.3</ele>
        <time>2013-04-14T08:00:33Z</time>
      </trkpt>
      <trkpt lat="49.9685" lon="2.52489">
        <ele>98.4</ele>
        <time>2013-04-14T08:00:43Z</time>
      </trkpt>
      <trkpt lat="49.9686" lon="2.52475">
        <ele>101</ele>
        <time>2013-04-14T08:00:54Z</time>
      </trkpt>
      <trkpt lat="49.96869" lon="2.52459">
        <ele>98.6</ele>
        <time>2013-04-14T08:01:04Z</time>
      </trkpt>
      <trkpt lat="49.96879" lon="2.52444">
        <ele>98.1</ele>
        <time>2013-04-14T08:01:13Z</time>
      </trkpt>
      <trkpt lat="49.96889" lon="2.52428">
        <ele>98.3</ele>
        <time>2013-04-14T08:01:24Z</time>
      </trkpt>
      <trkpt lat="49.96899" lon="2.52414">
        <ele>98.5</ele>
        <time>2013-04-14T08:01:34Z</time>
      </trkpt>
      <trkpt lat="49.96908" lon="2.52397">
        <ele>98.7</ele>
        <time>2013-04-14T08:01:44Z</time>
      </trkpt>
      <trkpt lat="49.9692" lon="2.52384">
        <ele>98.9</ele>
        <time>2013-04-14T08:01:54Z</time>
      </trkpt>
      <trkpt lat="49.96929" lon="2.52366">
        <ele>99.2</ele>
        <time>2013-04-14T08:02:07Z</time>
      </trkpt>
      <trkpt lat="49.96938" lon="2.52349">
        <ele>99.4</ele>
        <time>2013-04-14T08:02:18Z</time>
      </trkpt>
      <trkpt lat="49.96947" lon="2.52332">
        <ele>99.6</ele>
        <time>2013-04-14T08:02:28Z</time>
      </trkpt>
      <trkpt lat="49.96957" lon="2.52315">
        <ele>99.8</ele>
        <time>2013-04-14T08:02:38Z</time>
      </trkpt>
      <trkpt lat="49.96966" lon="2.52299">
        <ele>100</ele>
        <time>2013-04-14T08:02:49Z</time>
      </trkpt>
      <trkpt lat="49.96972" lon="2.52279">
        <ele>100.2</ele>
        <time>2013-04-14T08:03:01Z</time>
      </trkpt>
      <trkpt lat="49.96979" lon="2.52261">
        <ele>100.4</ele>
        <time>2013-04-14T08:03:12Z</time>
      </trkpt>
      <trkpt lat="49.96985" lon="2.5224">
        <ele>100.6</ele>
        <time>2013-04-14T08:03:22Z</time>
      </trkpt>
      <trkpt lat="49.9699" lon="2.52221">
        <ele>100.8</ele>
        <time>2013-04-14T08:03:32Z</time>
      </trkpt>
      <trkpt lat="49.96996" lon="2.522">
        <ele>101</ele>
        <time>2013-04-14T08:03:43Z</time>
      </trkpt>
      <trkpt lat="49.97001" lon="2.52179">
        <ele>98.8</ele>
        <time>2013-04-14T08:03:54Z</time>
      </trkpt>
      <trkpt lat="49.97007" lon="2.52159">
        <ele>97.6</ele>
        <time>2013-04-14T08:04:04Z</time>
      </trkpt>
      <trkpt lat="49.97013" lon="2.52138">
        <ele>96.7</ele>
        <time>2013-04-14T08:04:16Z</time>
      </trkpt>
      <trkpt lat="49.97019" lon="2.52117">
        <ele>95.9</ele>
        <time>2013-04-14T08:04:26Z</time>
      </trkpt>
      <trkpt lat="49.97027" lon="2.52098">
        <ele>95.1</ele>
        <time>2013-04-14T08:04:36Z</time>
      </trkpt>
      <trkpt lat="49.97033" lon="2.52079">
        <ele>92.5</ele>
        <time>2013-04-14T08:04:46Z</time>
      </trkpt>
      <trkpt lat="49.9704" lon="2.52059">
        <ele>89.3</ele>
        <time>2013-04-14T08:04:56Z</time>
      </trkpt>
      <trkpt lat="49.97049" lon="2.52042">
        <ele>86.7</ele>
        <time>2013-04-14T08:05:05Z</time>
      </trkpt>
      <trkpt lat="49.97055" lon="2.52022">
        <ele>84</ele>
        <time>2013-04-14T08:05:17Z</time>
      </trkpt>
      <trkpt lat="49.9706" lon="2.52002">
        <ele>84.6</ele>
        <time>2013-04-14T08:05:28Z</time>
      </trkpt>
      <trkpt lat="49.97067" lon="2.51981">
        <ele>85.1</ele>
        <time>2013-04-14T08:05:38Z</time>
      </trkpt>
      <trkpt lat="49.97071" lon="2.51961">
        <ele>85.7</ele>
        <time>2013-04-14T08:05:49Z</time>
      </trkpt>
      <trkpt lat="49.97077" lon="2.51941">
        <ele>85</ele>
        <time>2013-04-14T08:05:59Z</time>
      </trkpt>
      <trkpt lat="49.97084" lon="2.51923">
        <ele>83.2</ele>
        <time>2013-04-14T08:06:09Z</time>
      </trkpt>
      <trkpt lat="49.97089" lon="2.51902">
        <ele>83.8</ele>
        <time>2013-04-14T08:06:19Z</time>
      </trkpt>
      <trkpt lat="49.97097" lon="2.51884">
        <ele>84.4</ele>
        <time>2013-04-14T08:06:29Z</time>
      </trkpt>
      <trkpt lat="49.97105" lon="2.51866">
        <ele>85.1</ele>
        <time>2013-04-14T08:06:40Z</time>
      </trkpt>
      <trkpt lat="49.97117" lon="2.51855">
        <ele>85.7</ele>
        <time>2013-04-14T08:06:50Z</time>
      </trkpt>
      <trkpt lat="49.97129" lon="2.51842">
        <ele>86.7</ele>
        <time>2013-04-14T08:07:02Z</time>
      </trkpt>
      <trkpt lat="49.97141" lon="2.5183">
        <ele>88.1</ele>
        <time>2013-04-14T08:07:15Z</time>
      </trkpt>
      <trkpt lat="49.97153" lon="2.51817">
        <ele>89.2</ele>
        <time>2013-04-14T08:07:25Z</time>
      </trkpt>
      <trkpt lat="49.97165" lon="2.51805">
        <ele>90.1</ele>
        <time>2013-04-14T08:07:35Z</time>
      </trkpt>
      <trkpt lat="49.97176" lon="2.51792">
        <ele>91.1</ele>
        <time>2013-04-14T08:07:47Z</time>
      </trkpt>
      <trkpt lat="49.97187" lon="2.51777">
        <ele>92</ele>
        <time>2013-04-14T08:07:57Z</time>
      </trkpt>
      <trkpt lat="49.97197" lon="2.51762">
        <ele>91.5</ele>
        <time>2013-04-14T08:08:07Z</time>
      </trkpt>
      <trkpt lat="49.97207" lon="2.51747">
        <ele>91</ele>
        <time>2013-04-14T08:08:20Z</time>
      </trkpt>
      <trkpt lat="49.97217" lon="2.51731">
        <ele>90.5</ele>
        <time>2013-04-14T08:08:32Z</time>
      </trkpt>
      <trkpt lat="49.97227" lon="2.51716">
        <ele>90</ele>
        <time>2013-04-14T08:08:43Z</time>
      </trkpt>
      <trkpt lat="49.97237" lon="2.51701">
        <ele>89.5</ele>
        <time>2013-04-14T08:08:55Z</time>
      </trkpt>
      <trkpt lat="49.97249" lon="2.51686">
        <ele>89</ele>
        <time>2013-04-14T08:09:05Z</time>
      </trkpt>
      <trkpt lat="49.97258" lon="2.51671">
        <ele>90.1</ele>
        <time>2013-04-14T08:09:15Z</time>
      </trkpt>
      <trkpt lat="49.97268" lon="2.51657">
        <ele>91.4</ele>
        <time>2013-04-14T08:09:25Z</time>
      </trkpt>
      <trkpt lat="49.97278" lon="2.5164">
        <ele>92.6</ele>
        <time>2013-04-14T08:09:38Z</time>
      </trkpt>
      <trkpt lat="49.97288" lon="2.51624">
        <ele>93.5</ele>
        <time>2013-04-14T08:09:49Z</time>
      </trkpt>
      <trkpt lat="49.97298" lon="2.51609">
        <ele>94.3</ele>
        <time>2013-04-14T08:09:59Z</time>
      </trkpt>
      <trkpt lat="49.97309" lon="2.51595">
        <ele>94.7</ele>
        <time>2013-04-14T08:10:10Z</time>
      </trkpt>
      <trkpt lat="49.97313" lon="2.51573">
        <ele>93.1</ele>
        <time>2013-04-14T08:10:22Z</time>
      </trkpt>
      <trkpt lat="49.9731" lon="2.51552">
        <ele>91.7</ele>
        <time>2013-04-14T08:10:32Z</time>
      </trkpt>
      <trkpt lat="49.97304" lon="2.51532">
        <ele>90.4</ele>
        <time>2013-04-14T08:10:41Z</time>
      </trkpt>
      <trkpt lat="49.97301" lon="2.51511">
        <ele>89</ele>
        <time>2013-04-14T08:10:52Z</time>
      </trkpt>
      <trkpt lat="49.97298" lon="2.5149">
        <ele>89</ele>
        <time>2013-04-14T08:11:02Z</time>
      </trkpt>
      <trkpt lat="49.97296" lon="2.5147">
        <ele>89</ele>
        <time>2013-04-14T08:11:13Z</time>
      </trkpt>
      <trkpt lat="49.97297" lon="2.51448">
        <ele>88.1</ele>
        <time>2013-04-14T08:11:23Z</time>
      </trkpt>
      <trkpt lat="49.973" lon="2.51426">
        <ele>88.3</ele>
        <time>2013-04-14T08:11:33Z</time>
      </trkpt>
      <trkpt lat="49.97304" lon="2.51405">
        <ele>88.7</ele>
        <time>2013-04-14T08:11:44Z</time>
      </trkpt>
      <trkpt lat="49.97309" lon="2.51385">
        <ele>89</ele>
        <time>2013-04-14T08:11:55Z</time>
      </trkpt>
      <trkpt lat="49.97315" lon="2.51365">
        <ele>89.4</ele>
        <time>2013-04-14T08:12:05Z</time>
      </trkpt>
      <trkpt lat="49.9732" lon="2.51344">
        <ele>89.7</ele>
        <time>2013-04-14T08:12:16Z</time>
      </trkpt>
      <trkpt lat="49.97325" lon="2.51323">
        <ele>90</ele>
        <time>2013-04-14T08:12:26Z</time>
      </trkpt>
      <trkpt lat="49.97332" lon="2.51303">
        <ele>90.4</ele>
        <time>2013-04-14T08:12:37Z</time>
      </trkpt>
      <trkpt lat="49.97336" lon="2.51282">
        <ele>90.7</ele>
        <time>2013-04-14T08:12:47Z</time>
      </trkpt>
      <trkpt lat="49.97341" lon="2.51261">
        <ele>91.1</ele>
        <time>2013-04-14T08:12:58Z</time>
      </trkpt>
      <trkpt lat="49.97345" lon="2.5124">
        <ele>91.8</ele>
        <time>2013-04-14T08:13:08Z</time>
      </trkpt>
      <trkpt lat="49.9735" lon="2.5122">
        <ele>92.4</ele>
        <time>2013-04-14T08:13:18Z</time>
      </trkpt>
      <trkpt lat="49.97367" lon="2.51189">
        <ele>93.8</ele>
        <time>2013-04-14T08:13:40Z</time>
      </trkpt>
      <trkpt lat="49.97367" lon="2.51189">
        <ele>93.8</ele>
        <time>2013-04-14T08:16:43Z</time>
      </trkpt>
      <trkpt lat="49.9738" lon="2.5118">
        <ele>94.4</ele>
        <time>2013-04-14T08:16:51Z</time>
      </trkpt>
      <trkpt lat="49.97394" lon="2.51184">
        <ele>94.2</ele>
        <time>2013-04-14T08:17:01Z</time>
      </trkpt>
      <trkpt lat="49.97408" lon="2.51187">
        <ele>94.1</ele>
        <time>2013-04-14T08:17:10Z</time>
      </trkpt>
      <trkpt lat="49.97421" lon="2.5119">
        <ele>93.4</ele>
        <time>2013-04-14T08:17:21Z</time>
      </trkpt>
      <trkpt lat="49.97435" lon="2.5119">
        <ele>92.5</ele>
        <time>2013-04-14T08:17:31Z</time>
      </trkpt>
      <trkpt lat="49.97449" lon="2.51191">
        <ele>91.6</ele>
        <time>2013-04-14T08:17:41Z</time>
      </trkpt>
      <trkpt lat="49.97463" lon="2.51196">
        <ele>90.6</ele>
        <time>2013-04-14T08:17:52Z</time>
      </trkpt>
      <trkpt lat="49.97477" lon="2.51199">
        <ele>91</ele>
        <time>2013-04-14T08:18:02Z</time>
      </trkpt>
      <trkpt lat="49.97492" lon="2.51201">
        <ele>90.1</ele>
        <time>2013-04-14T08:18:13Z</time>
      </trkpt>
      <trkpt lat="49.97506" lon="2.512">
        <ele>88.1</ele>
        <time>2013-04-14T08:18:21Z</time>
      </trkpt>
      <trkpt lat="49.9752" lon="2.51204">
        <ele>89</ele>
        <time>2013-04-14T08:18:31Z</time>
      </trkpt>
      <trkpt lat="49.97534" lon="2.51207">
        <ele>90.2</ele>
        <time>2013-04-14T08:18:41Z</time>
      </trkpt>
      <trkpt lat="49.97549" lon="2.5121">
        <ele>91.2</ele>
        <time>2013-04-14T08:18:53Z</time>
      </trkpt>
      <trkpt lat="49.97562" lon="2.51214">
        <ele>91.9</ele>
        <time>2013-04-14T08:19:03Z</time>
      </trkpt>
      <trkpt lat="49.97576" lon="2.51217">
        <ele>92.5</ele>
        <time>2013-04-14T08:19:12Z</time>
      </trkpt>
      <trkpt lat="49.9759" lon="2.51219">
        <ele>93.2</ele>
        <time>2013-04-14T08:19:23Z</time>
      </trkpt>
      <trkpt lat="49.97605" lon="2.5122">
        <ele>94</ele>
        <time>2013-04-14T08:19:35Z</time>
      </trkpt>
      <trkpt lat="49.97619" lon="2.51222">
        <ele>95.1</ele>
        <time>2013-04-14T08:19:44Z</time>
      </trkpt>
      <trkpt lat="49.97633" lon="2.51223">
        <ele>96.4</ele>
        <time>2013-04-14T08:19:55Z</time>
      </trkpt>
      <trkpt lat="49.97646" lon="2.51226">
        <ele>97.5</ele>
        <time>2013-04-14T08:20:04Z</time>
      </trkpt>
      <trkpt lat="49.9766" lon="2.51227">
        <ele>98.7</ele>
        <time>2013-04-14T08:20:17Z</time>
      </trkpt>
      <trkpt lat="49.97674" lon="2.51229">
        <ele>98.1</ele>
        <time>2013-04-14T08:20:27Z</time>
      </trkpt>
      <trkpt lat="49.97688" lon="2.51234">
        <ele>98.5</ele>
        <time>2013-04-14T08:20:36Z</time>
      </trkpt>
      <trkpt lat="49.97701" lon="2.51243">
        <ele>99</ele>
        <time>2013-04-14T08:20:46Z</time>
      </trkpt>
      <trkpt lat="49.97714" lon="2.51253">
        <ele>99.4</ele>
        <time>2013-04-14T08:20:56Z</time>
      </trkpt>
      <trkpt lat="49.97727" lon="2.51265">
        <ele>99.9</ele>
        <time>2013-04-14T08:21:06Z</time>
      </trkpt>
      <trkpt lat="49.97737" lon="2.51279">
        <ele>100.4</ele>
        <time>2013-04-14T08:21:16Z</time>
      </trkpt>
      <trkpt lat="49.97747" lon="2.51294">
        <ele>100.8</ele>
        <time>2013-04-14T08:21:26Z</time>
      </trkpt>
      <trkpt lat="49.97757" lon="2.5131">
        <ele>101.3</ele>
        <time>2013-04-14T08:21:36Z</time>
      </trkpt>
      <trkpt lat="49.97765" lon="2.51328">
        <ele>101.8</ele>
        <time>2013-04-14T08:21:46Z</time>
      </trkpt>
      <trkpt lat="49.97774" lon="2.51346">
        <ele>100.9</ele>
        <time>2013-04-14T08:21:57Z</time>
      </trkpt>
      <trkpt lat="49.97782" lon="2.51363">
        <ele>99.3</ele>
        <time>2013-04-14T08:22:06Z</time>
      </trkpt>
      <trkpt lat="49.97791" lon="2.51379">
        <ele>99.4</ele>
        <time>2013-04-14T08:22:16Z</time>
      </trkpt>
      <trkpt lat="49.97802" lon="2.51395">
        <ele>99.9</ele>
        <time>2013-04-14T08:22:26Z</time>
      </trkpt>
      <trkpt lat="49.97811" lon="2.51413">
        <ele>100.5</ele>
        <time>2013-04-14T08:22:37Z</time>
      </trkpt>
      <trkpt lat="49.9782" lon="2.5143">
        <ele>100.9</ele>
        <time>2013-04-14T08:22:47Z</time>
      </trkpt>
      <trkpt lat="49.97828" lon="2.51447">
        <ele>101.4</ele>
        <time>2013-04-14T08:22:57Z</time>
      </trkpt>
      <trkpt lat="49.97837" lon="2.51464">
        <ele>101.9</ele>
        <time>2013-04-14T08:23:07Z</time>
      </trkpt>
      <trkpt lat="49.97847" lon="2.5148">
        <ele>101.4</ele>
        <time>2013-04-14T08:23:17Z</time>
      </trkpt>
      <trkpt lat="49.97857" lon="2.51495">
        <ele>100.8</ele>
        <time>2013-04-14T08:23:27Z</time>
      </trkpt>
      <trkpt lat="49.97869" lon="2.51509">
        <ele>100.1</ele>
        <time>2013-04-14T08:23:37Z</time>
      </trkpt>
      <trkpt lat="49.97881" lon="2.51516">
        <ele>99.5</ele>
        <time>2013-04-14T08:23:47Z</time>
      </trkpt>
      <trkpt lat="49.97895" lon="2.51524">
        <ele>100.4</ele>
        <time>2013-04-14T08:23:58Z</time>
      </trkpt>
      <trkpt lat="49.97908" lon="2.51533">
        <ele>103.4</ele>
        <time>2013-04-14T08:24:09Z</time>
      </trkpt>
      <trkpt lat="49.97921" lon="2.51543">
        <ele>104.8</ele>
        <time>2013-04-14T08:24:18Z</time>
      </trkpt>
      <trkpt lat="49.97934" lon="2.51551">
        <ele>106.2</ele>
        <time>2013-04-14T08:24:29Z</time>
      </trkpt>
      <trkpt lat="49.97947" lon="2.51561">
        <ele>105.9</ele>
        <time>2013-04-14T08:24:38Z</time>
      </trkpt>
      <trkpt lat="49.97961" lon="2.51571">
        <ele>103.2</ele>
        <time>2013-04-14T08:24:48Z</time>
      </trkpt>
      <trkpt lat="49.97975" lon="2.51578">
        <ele>101.8</ele>
        <time>2013-04-14T08:24:57Z</time>
      </trkpt>
      <trkpt lat="49.97988" lon="2.51585">
        <ele>101.3</ele>
        <time>2013-04-14T08:25:08Z</time>
      </trkpt>
      <trkpt lat="49.98002" lon="2.51593">
        <ele>100.7</ele>
        <time>2013-04-14T08:25:20Z</time>
      </trkpt>
      <trkpt lat="49.98014" lon="2.51602">
        <ele>100.3</ele>
        <time>2013-04-14T08:25:29Z</time>
      </trkpt>
      <trkpt lat="49.98027" lon="2.51612">
        <ele>100.5</ele>
        <time>2013-04-14T08:25:41Z</time>
      </trkpt>
      <trkpt lat="49.9804" lon="2.51621">
        <ele>100.9</ele>
        <time>2013-04-14T08:25:51Z</time>
      </trkpt>
      <trkpt lat="49.98054" lon="2.51629">
        <ele>100.5</ele>
        <time>2013-04-14T08:26:01Z</time>
      </trkpt>
      <trkpt lat="49.98067" lon="2.51638">
        <ele>100.2</ele>
        <time>2013-04-14T08:26:10Z</time>
      </trkpt>
      <trkpt lat="49.98081" lon="2.51644">
        <ele>99.8</ele>
        <time>2013-04-14T08:26:21Z</time>
      </trkpt>
      <trkpt lat="49.98095" lon="2.51653">
        <ele>99.4</ele>
        <time>2013-04-14T08:26:33Z</time>
      </trkpt>
      <trkpt lat="49.98107" lon="2.51664">
        <ele>99</ele>
        <time>2013-04-14T08:26:44Z</time>
      </trkpt>
      <trkpt lat="49.9812" lon="2.51672">
        <ele>98.6</ele>
        <time>2013-04-14T08:26:55Z</time>
      </trkpt>
      <trkpt lat="49.98133" lon="2.5168">
        <ele>98.2</ele>
        <time>2013-04-14T08:27:05Z</time>
      </trkpt>
      <trkpt lat="49.98146" lon="2.51689">
        <ele>98.4</ele>
        <time>2013-04-14T08:27:14Z</time>
      </trkpt>
      <trkpt lat="49.98158" lon="2.517">
        <ele>99.7</ele>
        <time>2013-04-14T08:27:25Z</time>
      </trkpt>
      <trkpt lat="49.98171" lon="2.51711">
        <ele>102</ele>
        <time>2013-04-14T08:27:37Z</time>
      </trkpt>
      <trkpt lat="49.98183" lon="2.51721">
        <ele>104.3</ele>
        <time>2013-04-14T08:27:46Z</time>
      </trkpt>
      <trkpt lat="49.98195" lon="2.5173">
        <ele>104.9</ele>
        <time>2013-04-14T08:27:56Z</time>
      </trkpt>
      <trkpt lat="49.98207" lon="2.5174">
        <ele>105.5</ele>
        <time>2013-04-14T08:28:07Z</time>
      </trkpt>
      <trkpt lat="49.9822" lon="2.51749">
        <ele>105.9</ele>
        <time>2013-04-14T08:28:16Z</time>
      </trkpt>
      <trkpt lat="49.98233" lon="2.51757">
        <ele>104.1</ele>
        <time>2013-04-14T08:28:27Z</time>
      </trkpt>
      <trkpt lat="49.98245" lon="2.51767">
        <ele>101</ele>
        <time>2013-04-14T08:28:37Z</time>
      </trkpt>
      <trkpt lat="49.98258" lon="2.51775">
        <ele>96.7</ele>
        <time>2013-04-14T08:28:45Z</time>
      </trkpt>
      <trkpt lat="49.98271" lon="2.51785">
        <ele>95</ele>
        <time>2013-04-14T08:28:55Z</time>
      </trkpt>
      <trkpt lat="49.98274" lon="2.51806">
        <ele>98.2</ele>
        <time>2013-04-14T08:29:07Z</time>
      </trkpt>
      <trkpt lat="49.98268" lon="2.51825">
        <ele>100.5</ele>
        <time>2013-04-14T08:29:17Z</time>
      </trkpt>
      <trkpt lat="49.98261" lon="2.51844">
        <ele>101.7</ele>
        <time>2013-04-14T08:29:27Z</time>
      </trkpt>
      <trkpt lat="49.98254" lon="2.51864">
        <ele>100.5</ele>
        <time>2013-04-14T08:29:39Z</time>
      </trkpt>
      <trkpt lat="49.98249" lon="2.51885">
        <ele>99.5</ele>
        <time>2013-04-14T08:29:48Z</time>
      </trkpt>
      <trkpt lat="49.98241" lon="2.51904">
        <ele>98.4</ele>
        <time>2013-04-14T08:29:59Z</time>
      </trkpt>
      <trkpt lat="49.98234" lon="2.51925">
        <ele>98.5</ele>
        <time>2013-04-14T08:30:10Z</time>
      </trkpt>
      <trkpt lat="49.98231" lon="2.51946">
        <ele>99.2</ele>
        <time>2013-04-14T08:30:20Z</time>
      </trkpt>
      <trkpt lat="49.98226" lon="2.51967">
        <ele>99.9</ele>
        <time>2013-04-14T08:30:31Z</time>
      </trkpt>
      <trkpt lat="49.98218" lon="2.51986">
        <ele>100.6</ele>
        <time>2013-04-14T08:30:41Z</time>
      </trkpt>
      <trkpt lat="49.98214" lon="2.52008">
        <ele>101.4</ele>
        <time>2013-04-14T08:30:53Z</time>
      </trkpt>
      <trkpt lat="49.98209" lon="2.52029">
        <ele>102.1</ele>
        <time>2013-04-14T08:31:03Z</time>
      </trkpt>
      <trkpt lat="49.98204" lon="2.52048">
        <ele>102.8</ele>
        <time>2013-04-14T08:31:13Z</time>
      </trkpt>
      <trkpt lat="49.98197" lon="2.52067">
        <ele>104</ele>
        <time>2013-04-14T08:31:23Z</time>
      </trkpt>
      <trkpt lat="49.9819" lon="2.52085">
        <ele>105.6</ele>
        <time>2013-04-14T08:31:34Z</time>
      </trkpt>
      <trkpt lat="49.98185" lon="2.52107">
        <ele>107.9</ele>
        <time>2013-04-14T08:31:45Z</time>
      </trkpt>
      <trkpt lat="49.98182" lon="2.52127">
        <ele>109.6</ele>
        <time>2013-04-14T08:31:56Z</time>
      </trkpt>
      <trkpt lat="49.98177" lon="2.52149">
        <ele>106</ele>
        <time>2013-04-14T08:32:06Z</time>
      </trkpt>
      <trkpt lat="49.98171" lon="2.52168">
        <ele>102</ele>
        <time>2013-04-14T08:32:17Z</time>
      </trkpt>
      <trkpt lat="49.98164" lon="2.52187">
        <ele>100.3</ele>
        <time>2013-04-14T08:32:27Z</time>
      </trkpt>
      <trkpt lat="49.98159" lon="2.52206">
        <ele>98.3</ele>
        <time>2013-04-14T08:32:36Z</time>
      </trkpt>
      <trkpt lat="49.98153" lon="2.52226">
        <ele>94.9</ele>
        <time>2013-04-14T08:32:45Z</time>
      </trkpt>
      <trkpt lat="49.9815" lon="2.52248">
        <ele>92</ele>
        <time>2013-04-14T08:32:56Z</time>
      </trkpt>
      <trkpt lat="49.98154" lon="2.52269">
        <ele>92</ele>
        <time>2013-04-14T08:33:07Z</time>
      </trkpt>
      <trkpt lat="49.98166" lon="2.52282">
        <ele>93.6</ele>
        <time>2013-04-14T08:33:19Z</time>
      </trkpt>
      <trkpt lat="49.98174" lon="2.52298">
        <ele>94.3</ele>
        <time>2013-04-14T08:33:28Z</time>
      </trkpt>
      <trkpt lat="49.98185" lon="2.52314">
        <ele>94.8</ele>
        <time>2013-04-14T08:33:39Z</time>
      </trkpt>
      <trkpt lat="49.98195" lon="2.5233">
        <ele>95.2</ele>
        <time>2013-04-14T08:33:50Z</time>
      </trkpt>
      <trkpt lat="49.98205" lon="2.52344">
        <ele>95.6</ele>
        <time>2013-04-14T08:34:00Z</time>
      </trkpt>
      <trkpt lat="49.98215" lon="2.5236">
        <ele>96.1</ele>
        <time>2013-04-14T08:34:12Z</time>
      </trkpt>
      <trkpt lat="49.98225" lon="2.52375">
        <ele>96.5</ele>
        <time>2013-04-14T08:34:21Z</time>
      </trkpt>
      <trkpt lat="49.98235" lon="2.52391">
        <ele>96.9</ele>
        <time>2013-04-14T08:34:32Z</time>
      </trkpt>
      <trkpt lat="49.98262" lon="2.52428">
        <ele>96.6</ele>
        <time>2013-04-14T08:34:50Z</time>
      </trkpt>
      <trkpt lat="49.98262" lon="2.52428">
        <ele>96.6</ele>
        <time>2013-04-14T08:39:20Z</time>
      </trkpt>
      <trkpt lat="49.98279" lon="2.52452">
        <ele>95.8</ele>
        <time>2013-04-14T08:39:27Z</time>
      </trkpt>
      <trkpt lat="49.98286" lon="2.52471">
        <ele>96.8</ele>
        <time>2013-04-14T08:39:38Z</time>
      </trkpt>
      <trkpt lat="49.98291" lon="2.52492">
        <ele>97.7</ele>
        <time>2013-04-14T08:39:49Z</time>
      </trkpt>
      <trkpt lat="49.98296" lon="2.52513">
        <ele>98.7</ele>
        <time>2013-04-14T08:40:00Z</time>
      </trkpt>
      <trkpt lat="49.98304" lon="2.52533">
        <ele>99.8</ele>
        <time>2013-04-14T08:40:13Z</time>
      </trkpt>
      <trkpt lat="49.98312" lon="2.52551">
        <ele>100.8</ele>
        <time>2013-04-14T08:40:24Z</time>
      </trkpt>
      <trkpt lat="49.98321" lon="2.52569">
        <ele>98.8</ele>
        <time>2013-04-14T08:40:34Z</time>
      </trkpt>
      <trkpt lat="49.98328" lon="2.52587">
        <ele>99.9</ele>
        <time>2013-04-14T08:40:44Z</time>
      </trkpt>
      <trkpt lat="49.98335" lon="2.52606">
        <ele>100.8</ele>
        <time>2013-04-14T08:40:55Z</time>
      </trkpt>
      <trkpt lat="49.98343" lon="2.52624">
        <ele>100.5</ele>
        <time>2013-04-14T08:41:05Z</time>
      </trkpt>
      <trkpt lat="49.98349" lon="2.52644">
        <ele>100.2</ele>
        <time>2013-04-14T08:41:17Z</time>
      </trkpt>
      <trkpt lat="49.98356" lon="2.52665">
        <ele>99.9</ele>
        <time>2013-04-14T08:41:27Z</time>
      </trkpt>
      <trkpt lat="49.98362" lon="2.52684">
        <ele>99.6</ele>
        <time>2013-04-14T08:41:37Z</time>
      </trkpt>
      <trkpt lat="49.98367" lon="2.52704">
        <ele>99.3</ele>
        <time>2013-04-14T08:41:47Z</time>
      </trkpt>
      <trkpt lat="49.98371" lon="2.52725">
        <ele>99</ele>
        <time>2013-04-14T08:41:59Z</time>
      </trkpt>
      <trkpt lat="49.98383" lon="2.52739">
        <ele>98.7</ele>
        <time>2013-04-14T08:42:09Z</time>
      </trkpt>
      <trkpt lat="49.98395" lon="2.52748">
        <ele>98.4</ele>
        <time>2013-04-14T08:42:19Z</time>
      </trkpt>
      <trkpt lat="49.98408" lon="2.52758">
        <ele>98.1</ele>
        <time>2013-04-14T08:42:29Z</time>
      </trkpt>
      <trkpt lat="49.98421" lon="2.52766">
        <ele>98.7</ele>
        <time>2013-04-14T08:42:40Z</time>
      </trkpt>
      <trkpt lat="49.98432" lon="2.5278">
        <ele>100</ele>
        <time>2013-04-14T08:42:49Z</time>
      </trkpt>
      <trkpt lat="49.98445" lon="2.52791">
        <ele>100.7</ele>
        <time>2013-04-14T08:43:01Z</time>
      </trkpt>
      <trkpt lat="49.98457" lon="2.52801">
        <ele>99.6</ele>
        <time>2013-04-14T08:43:12Z</time>
      </trkpt>
      <trkpt lat="49.98469" lon="2.52811">
        <ele>98.8</ele>
        <time>2013-04-14T08:43:22Z</time>
      </trkpt>
      <trkpt lat="49.98482" lon="2.52822">
        <ele>97.7</ele>
        <time>2013-04-14T08:43:34Z</time>
      </trkpt>
      <trkpt lat="49.98495" lon="2.52833">
        <ele>96.2</ele>
        <time>2013-04-14T08:43:47Z</time>
      </trkpt>
      <trkpt lat="49.98507" lon="2.52841">
        <ele>95.1</ele>
        <time>2013-04-14T08:43:57Z</time>
      </trkpt>
      <trkpt lat="49.9852" lon="2.52849">
        <ele>96.1</ele>
        <time>2013-04-14T08:44:06Z</time>
      </trkpt>
      <trkpt lat="49.98534" lon="2.52858">
        <ele>97.1</ele>
        <time>2013-04-14T08:44:15Z</time>
      </trkpt>
      <trkpt lat="49.98546" lon="2.52869">
        <ele>98.4</ele>
        <time>2013-04-14T08:44:26Z</time>
      </trkpt>
      <trkpt lat="49.98559" lon="2.52878">
        <ele>99.2</ele>
        <time>2013-04-14T08:44:37Z</time>
      </trkpt>
      <trkpt lat="49.98572" lon="2.5289">
        <ele>99.7</ele>
        <time>2013-04-14T08:44:49Z</time>
      </trkpt>
      <trkpt lat="49.98584" lon="2.529">
        <ele>100.1</ele>
        <time>2013-04-14T08:45:00Z</time>
      </trkpt>
      <trkpt lat="49.98595" lon="2.52911">
        <ele>100.5</ele>
        <time>2013-04-14T08:45:10Z</time>
      </trkpt>
      <trkpt lat="49.98608" lon="2.5292">
        <ele>100.9</ele>
        <time>2013-04-14T08:45:20Z</time>
      </trkpt>
      <trkpt lat="49.98621" lon="2.52928">
        <ele>101.3</ele>
        <time>2013-04-14T08:45:31Z</time>
      </trkpt>
      <trkpt lat="49.98633" lon="2.52941">
        <ele>101.8</ele>
        <time>2013-04-14T08:45:43Z</time>
      </trkpt>
      <trkpt lat="49.98646" lon="2.5295">
        <ele>101.7</ele>
        <time>2013-04-14T08:45:54Z</time>
      </trkpt>
      <trkpt lat="49.98659" lon="2.52962">
        <ele>101.1</ele>
        <time>2013-04-14T08:46:04Z</time>
      </trkpt>
      <trkpt lat="49.98672" lon="2.52968">
        <ele>100.4</ele>
        <time>2013-04-14T08:46:16Z</time>
      </trkpt>
      <trkpt lat="49.98685" lon="2.52978">
        <ele>99.8</ele>
        <time>2013-04-14T08:46:26Z</time>
      </trkpt>
      <trkpt lat="49.98696" lon="2.5299">
        <ele>99.3</ele>
        <time>2013-04-14T08:46:34Z</time>
      </trkpt>
      <trkpt lat="49.9871" lon="2.53">
        <ele>100.7</ele>
        <time>2013-04-14T08:46:45Z</time>
      </trkpt>
      <trkpt lat="49.98723" lon="2.53007">
        <ele>100.5</ele>
        <time>2013-04-14T08:47:01Z</time>
      </trkpt>
      <trkpt lat="49.98737" lon="2.53012">
        <ele>99.6</ele>
        <time>2013-04-14T08:47:08Z</time>
      </trkpt>
      <trkpt lat="49.98751" lon="2.53017">
        <ele>97.2</ele>
        <time>2013-04-14T08:47:19Z</time>
      </trkpt>
      <trkpt lat="49.98766" lon="2.5302">
        <ele>94.9</ele>
        <time>2013-04-14T08:47:26Z</time>
      </trkpt>
      <trkpt lat="49.98779" lon="2.53026">
        <ele>97.4</ele>
        <time>2013-04-14T08:47:37Z</time>
      </trkpt>
      <trkpt lat="49.98793" lon="2.53028">
        <ele>99.4</ele>
        <time>2013-04-14T08:47:48Z</time>
      </trkpt>
      <trkpt lat="49.98807" lon="2.53032">
        <ele>101.9</ele>
        <time>2013-04-14T08:47:58Z</time>
      </trkpt>
      <trkpt lat="49.98822" lon="2.53036">
        <ele>103.9</ele>
        <time>2013-04-14T08:48:06Z</time>
      </trkpt>
      <trkpt lat="49.98836" lon="2.53032">
        <ele>105.7</ele>
        <time>2013-04-14T08:48:14Z</time>
      </trkpt>
      <trkpt lat="49.9885" lon="2.53034">
        <ele>105.4</ele>
        <time>2013-04-14T08:48:22Z</time>
      </trkpt>
      <trkpt lat="49.98862" lon="2.53028">
        <ele>105.4</ele>
        <time>2013-04-14T08:48:29Z</time>
      </trkpt>
      <trkpt lat="49.98869" lon="2.53034">
        <ele>106.2</ele>
        <time>2013-04-14T08:48:35Z</time>
      </trkpt>
      <trkpt lat="49.98874" lon="2.53054">
        <ele>107</ele>
        <time>2013-04-14T08:48:52Z</time>
      </trkpt>
      <trkpt lat="49.98889" lon="2.53059">
        <ele>109</ele>
        <time>2013-04-14T08:49:01Z</time>
      </trkpt>
      <trkpt lat="49.98904" lon="2.53064">
        <ele>110.3</ele>
        <time>2013-04-14T08:49:06Z</time>
      </trkpt>
      <trkpt lat="49.98917" lon="2.53075">
        <ele>108.6</ele>
        <time>2013-04-14T08:49:16Z</time>
      </trkpt>
      <trkpt lat="49.98924" lon="2.53093">
        <ele>105.8</ele>
        <time>2013-04-14T08:49:34Z</time>
      </trkpt>
      <trkpt lat="49.98937" lon="2.53105">
        <ele>106.7</ele>
        <time>2013-04-14T08:49:44Z</time>
      </trkpt>
      <trkpt lat="49.98944" lon="2.53124">
        <ele>107.7</ele>
        <time>2013-04-14T08:49:54Z</time>
      </trkpt>
      <trkpt lat="49.98954" lon="2.53137">
        <ele>109.4</ele>
        <time>2013-04-14T08:50:02Z</time>
      </trkpt>
      <trkpt lat="49.98969" lon="2.53173">
        <ele>108.5</ele>
        <time>2013-04-14T08:50:19Z</time>
      </trkpt>
      <trkpt lat="49.98969" lon="2.53173">
        <ele>108.5</ele>
        <time>2013-04-14T08:54:07Z</time>
      </trkpt>
      <trkpt lat="49.98973" lon="2.53196">
        <ele>105.2</ele>
        <time>2013-04-14T08:54:10Z</time>
      </trkpt>
      <trkpt lat="49.98966" lon="2.53214">
        <ele>104.2</ele>
        <time>2013-04-14T08:54:24Z</time>
      </trkpt>
      <trkpt lat="49.98961" lon="2.53234">
        <ele>105.6</ele>
        <time>2013-04-14T08:54:33Z</time>
      </trkpt>
      <trkpt lat="49.98955" lon="2.53254">
        <ele>107.2</ele>
        <time>2013-04-14T08:54:41Z</time>
      </trkpt>
      <trkpt lat="49.98947" lon="2.53275">
        <ele>108.7</ele>
        <time>2013-04-14T08:54:51Z</time>
      </trkpt>
      <trkpt lat="49.98943" lon="2.53295">
        <ele>110.5</ele>
        <time>2013-04-14T08:55:00Z</time>
      </trkpt>
      <trkpt lat="49.98938" lon="2.53316">
        <ele>113.2</ele>
        <time>2013-04-14T08:55:11Z</time>
      </trkpt>
      <trkpt lat="49.98933" lon="2.53336">
        <ele>115</ele>
        <time>2013-04-14T08:55:21Z</time>
      </trkpt>
      <trkpt lat="49.98929" lon="2.53358">
        <ele>114.6</ele>
        <time>2013-04-14T08:55:31Z</time>
      </trkpt>
      <trkpt lat="49.98925" lon="2.5338">
        <ele>114.2</ele>
        <time>2013-04-14T08:55:41Z</time>
      </trkpt>
      <trkpt lat="49.98921" lon="2.53401">
        <ele>113.6</ele>
        <time>2013-04-14T08:55:51Z</time>
      </trkpt>
      <trkpt lat="49.98917" lon="2.53422">
        <ele>112.3</ele>
        <time>2013-04-14T08:56:01Z</time>
      </trkpt>
      <trkpt lat="49.98912" lon="2.53443">
        <ele>111.2</ele>
        <time>2013-04-14T08:56:12Z</time>
      </trkpt>
      <trkpt lat="49.98908" lon="2.53465">
        <ele>114</ele>
        <time>2013-04-14T08:56:23Z</time>
      </trkpt>
      <trkpt lat="49.98904" lon="2.53485">
        <ele>112.3</ele>
        <time>2013-04-14T08:56:33Z</time>
      </trkpt>
      <trkpt lat="49.98894" lon="2.535">
        <ele>110</ele>
        <time>2013-04-14T08:56:45Z</time>
      </trkpt>
      <trkpt lat="49.98882" lon="2.53512">
        <ele>109.1</ele>
        <time>2013-04-14T08:56:55Z</time>
      </trkpt>
      <trkpt lat="49.9887" lon="2.53525">
        <ele>110.3</ele>
        <time>2013-04-14T08:57:06Z</time>
      </trkpt>
      <trkpt lat="49.98858" lon="2.53534">
        <ele>109.3</ele>
        <time>2013-04-14T08:57:17Z</time>
      </trkpt>
      <trkpt lat="49.98846" lon="2.53545">
        <ele>108.3</ele>
        <time>2013-04-14T08:57:29Z</time>
      </trkpt>
      <trkpt lat="49.98833" lon="2.53554">
        <ele>107.4</ele>
        <time>2013-04-14T08:57:39Z</time>
      </trkpt>
      <trkpt lat="49.9882" lon="2.53564">
        <ele>106.8</ele>
        <time>2013-04-14T08:57:49Z</time>
      </trkpt>
      <trkpt lat="49.98807" lon="2.53574">
        <ele>106.3</ele>
        <time>2013-04-14T08:57:59Z</time>
      </trkpt>
      <trkpt lat="49.98794" lon="2.53583">
        <ele>105.8</ele>
        <time>2013-04-14T08:58:09Z</time>
      </trkpt>
      <trkpt lat="49.98783" lon="2.53595">
        <ele>105.4</ele>
        <time>2013-04-14T08:58:19Z</time>
      </trkpt>
      <trkpt lat="49.9877" lon="2.53603">
        <ele>104.4</ele>
        <time>2013-04-14T08:58:31Z</time>
      </trkpt>
      <trkpt lat="49.98757" lon="2.53613">
        <ele>103.8</ele>
        <time>2013-04-14T08:58:43Z</time>
      </trkpt>
      <trkpt lat="49.98745" lon="2.53623">
        <ele>103.6</ele>
        <time>2013-04-14T08:58:53Z</time>
      </trkpt>
      <trkpt lat="49.98732" lon="2.53634">
        <ele>103.4</ele>
        <time>2013-04-14T08:59:05Z</time>
      </trkpt>
      <trkpt lat="49.98719" lon="2.53644">
        <ele>103.1</ele>
        <time>2013-04-14T08:59:16Z</time>
      </trkpt>
      <trkpt lat="49.98707" lon="2.53654">
        <ele>102.9</ele>
        <time>2013-04-14T08:59:27Z</time>
      </trkpt>
      <trkpt lat="49.98694" lon="2.53663">
        <ele>102.7</ele>
        <time>2013-04-14T08:59:37Z</time>
      </trkpt>
      <trkpt lat="49.98682" lon="2.53673">
        <ele>102.5</ele>
        <time>2013-04-14T08:59:49Z</time>
      </trkpt>
      <trkpt lat="49.9867" lon="2.53682">
        <ele>102.3</ele>
        <time>2013-04-14T08:59:59Z</time>
      </trkpt>
      <trkpt lat="49.98656" lon="2.53692">
        <ele>102</ele>
        <time>2013-04-14T09:00:11Z</time>
      </trkpt>
      <trkpt lat="49.98643" lon="2.53701">
        <ele>101.8</ele>
        <time>2013-04-14T09:00:21Z</time>
      </trkpt>
      <trkpt lat="49.98631" lon="2.53711">
        <ele>101.6</ele>
        <time>2013-04-14T09:00:32Z</time>
      </trkpt>
      <trkpt lat="49.98618" lon="2.53721">
        <ele>101.4</ele>
        <time>2013-04-14T09:00:43Z</time>
      </trkpt>
      <trkpt lat="49.98606" lon="2.53732">
        <ele>101.2</ele>
        <time>2013-04-14T09:00:53Z</time>
      </trkpt>
      <trkpt lat="49.98593" lon="2.53743">
        <ele>100.8</ele>
        <time>2013-04-14T09:01:04Z</time>
      </trkpt>
      <trkpt lat="49.98579" lon="2.53752">
        <ele>99.7</ele>
        <time>2013-04-14T09:01:15Z</time>
      </trkpt>
      <trkpt lat="49.98567" lon="2.53763">
        <ele>98.6</ele>
        <time>2013-04-14T09:01:25Z</time>
      </trkpt>
      <trkpt lat="49.98553" lon="2.53773">
        <ele>97.6</ele>
        <time>2013-04-14T09:01:35Z</time>
      </trkpt>
      <trkpt lat="49.9854" lon="2.53783">
        <ele>96.6</ele>
        <time>2013-04-14T09:01:44Z</time>
      </trkpt>
      <trkpt lat="49.98527" lon="2.53791">
        <ele>95.6</ele>
        <time>2013-04-14T09:01:53Z</time>
      </trkpt>
      <trkpt lat="49.98513" lon="2.538">
        <ele>95.4</ele>
        <time>2013-04-14T09:02:03Z</time>
      </trkpt>
      <trkpt lat="49.98502" lon="2.5381">
        <ele>96.5</ele>
        <time>2013-04-14T09:02:13Z</time>
      </trkpt>
      <trkpt lat="49.98489" lon="2.53819">
        <ele>97.5</ele>
        <time>2013-04-14T09:02:23Z</time>
      </trkpt>
      <trkpt lat="49.98477" lon="2.5383">
        <ele>97.7</ele>
        <time>2013-04-14T09:02:32Z</time>
      </trkpt>
      <trkpt lat="49.98465" lon="2.53839">
        <ele>97</ele>
        <time>2013-04-14T09:02:41Z</time>
      </trkpt>
      <trkpt lat="49.98452" lon="2.53849">
        <ele>96.4</ele>
        <time>2013-04-14T09:02:50Z</time>
      </trkpt>
      <trkpt lat="49.9844" lon="2.5386">
        <ele>95.8</ele>
        <time>2013-04-14T09:03:00Z</time>
      </trkpt>
      <trkpt lat="49.98428" lon="2.53871">
        <ele>95.1</ele>
        <time>2013-04-14T09:03:09Z</time>
      </trkpt>
      <trkpt lat="49.98415" lon="2.53881">
        <ele>95.7</ele>
        <time>2013-04-14T09:03:19Z</time>
      </trkpt>
      <trkpt lat="49.98402" lon="2.53891">
        <ele>96.7</ele>
        <time>2013-04-14T09:03:30Z</time>
      </trkpt>
      <trkpt lat="49.98389" lon="2.53902">
        <ele>97.6</ele>
        <time>2013-04-14T09:03:41Z</time>
      </trkpt>
      <trkpt lat="49.98376" lon="2.5391">
        <ele>97.3</ele>
        <time>2013-04-14T09:03:52Z</time>
      </trkpt>
      <trkpt lat="49.98362" lon="2.53919">
        <ele>96.3</ele>
        <time>2013-04-14T09:04:02Z</time>
      </trkpt>
      <trkpt lat="49.98351" lon="2.5393">
        <ele>95.3</ele>
        <time>2013-04-14T09:04:12Z</time>
      </trkpt>
      <trkpt lat="49.98338" lon="2.5394">
        <ele>94.3</ele>
        <time>2013-04-14T09:04:23Z</time>
      </trkpt>
      <trkpt lat="49.98326" lon="2.53949">
        <ele>94.4</ele>
        <time>2013-04-14T09:04:31Z</time>
      </trkpt>
      <trkpt lat="49.98314" lon="2.5396">
        <ele>95</ele>
        <time>2013-04-14T09:04:41Z</time>
      </trkpt>
      <trkpt lat="49.98302" lon="2.53972">
        <ele>95.7</ele>
        <time>2013-04-14T09:04:52Z</time>
      </trkpt>
      <trkpt lat="49.98301" lon="2.53993">
        <ele>96.3</ele>
        <time>2013-04-14T09:05:02Z</time>
      </trkpt>
      <trkpt lat="49.98304" lon="2.54014">
        <ele>96.9</ele>
        <time>2013-04-14T09:05:12Z</time>
      </trkpt>
      <trkpt lat="49.98307" lon="2.54036">
        <ele>97</ele>
        <time>2013-04-14T09:05:21Z</time>
      </trkpt>
      <trkpt lat="49.9831" lon="2.54059">
        <ele>96.9</ele>
        <time>2013-04-14T09:05:32Z</time>
      </trkpt>
      <trkpt lat="49.98312" lon="2.5408">
        <ele>96.8</ele>
        <time>2013-04-14T09:05:43Z</time>
      </trkpt>
      <trkpt lat="49.98314" lon="2.54103">
        <ele>96.8</ele>
        <time>2013-04-14T09:05:53Z</time>
      </trkpt>
      <trkpt lat="49.98316" lon="2.54125">
        <ele>96.7</ele>
        <time>2013-04-14T09:06:05Z</time>
      </trkpt>
      <trkpt lat="49.98318" lon="2.54147">
        <ele>96.7</ele>
        <time>2013-04-14T09:06:15Z</time>
      </trkpt>
      <trkpt lat="49.98321" lon="2.54168">
        <ele>96.6</ele>
        <time>2013-04-14T09:06:27Z</time>
      </trkpt>
      <trkpt lat="49.98327" lon="2.54188">
        <ele>96.6</ele>
        <time>2013-04-14T09:06:37Z</time>
      </trkpt>
      <trkpt lat="49.98334" lon="2.54207">
        <ele>96.5</ele>
        <time>2013-04-14T09:06:49Z</time>
      </trkpt>
      <trkpt lat="49.98347" lon="2.54245">
        <ele>99.8</ele>
        <time>2013-04-14T09:07:07Z</time>
      </trkpt>
      <trkpt lat="49.98347" lon="2.54245">
        <ele>99.8</ele>
        <time>2013-04-14T09:16:46Z</time>
      </trkpt>
      <trkpt lat="49.98354" lon="2.54264">
        <ele>103.1</ele>
        <time>2013-04-14T09:16:47Z</time>
      </trkpt>
      <trkpt lat="49.98359" lon="2.54283">
        <ele>101.6</ele>
        <time>2013-04-14T09:16:58Z</time>
      </trkpt>
      <trkpt lat="49.98367" lon="2.54301">
        <ele>98.1</ele>
        <time>2013-04-14T09:17:09Z</time>
      </trkpt>
      <trkpt lat="49.98374" lon="2.5432">
        <ele>94.5</ele>
        <time>2013-04-14T09:17:17Z</time>
      </trkpt>
      <trkpt lat="49.9838" lon="2.54342">
        <ele>93.1</ele>
        <time>2013-04-14T09:17:37Z</time>
      </trkpt>
      <trkpt lat="49.98383" lon="2.54365">
        <ele>93.1</ele>
        <time>2013-04-14T09:17:42Z</time>
      </trkpt>
      <trkpt lat="49.98385" lon="2.54386">
        <ele>93.7</ele>
        <time>2013-04-14T09:18:00Z</time>
      </trkpt>
      <trkpt lat="49.9839" lon="2.54406">
        <ele>94</ele>
        <time>2013-04-14T09:18:07Z</time>
      </trkpt>
      <trkpt lat="49.98389" lon="2.54428">
        <ele>91.7</ele>
        <time>2013-04-14T09:18:19Z</time>
      </trkpt>
      <trkpt lat="49.98386" lon="2.54449">
        <ele>90.2</ele>
        <time>2013-04-14T09:18:29Z</time>
      </trkpt>
      <trkpt lat="49.98386" lon="2.54471">
        <ele>88.4</ele>
        <time>2013-04-14T09:18:41Z</time>
      </trkpt>
      <trkpt lat="49.98384" lon="2.54476">
        <ele>88.5</ele>
        <time>2013-04-14T09:18:45Z</time>
      </trkpt>
      <trkpt lat="49.98387" lon="2.54498">
        <ele>89.4</ele>
        <time>2013-04-14T09:18:59Z</time>
      </trkpt>
      <trkpt lat="49.9838" lon="2.54518">
        <ele>86.3</ele>
        <time>2013-04-14T09:19:12Z</time>
      </trkpt>
      <trkpt lat="49.98372" lon="2.54537">
        <ele>85.2</ele>
        <time>2013-04-14T09:19:25Z</time>
      </trkpt>
      <trkpt lat="49.98366" lon="2.54557">
        <ele>84.1</ele>
        <time>2013-04-14T09:19:33Z</time>
      </trkpt>
      <trkpt lat="49.98364" lon="2.54579">
        <ele>82.7</ele>
        <time>2013-04-14T09:19:42Z</time>
      </trkpt>
      <trkpt lat="49.98357" lon="2.54599">
        <ele>79.4</ele>
        <time>2013-04-14T09:19:51Z</time>
      </trkpt>
      <trkpt lat="49.98356" lon="2.54621">
        <ele>84.3</ele>
        <time>2013-04-14T09:20:01Z</time>
      </trkpt>
      <trkpt lat="49.98352" lon="2.54641">
        <ele>84.8</ele>
        <time>2013-04-14T09:20:09Z</time>
      </trkpt>
      <trkpt lat="49.98347" lon="2.54665">
        <ele>80.4</ele>
        <time>2013-04-14T09:20:21Z</time>
      </trkpt>
      <trkpt lat="49.98345" lon="2.54687">
        <ele>75.5</ele>
        <time>2013-04-14T09:20:33Z</time>
      </trkpt>
      <trkpt lat="49.98342" lon="2.54708">
        <ele>77.8</ele>
        <time>2013-04-14T09:20:45Z</time>
      </trkpt>
      <trkpt lat="49.98344" lon="2.5473">
        <ele>79.3</ele>
        <time>2013-04-14T09:20:56Z</time>
      </trkpt>
      <trkpt lat="49.98346" lon="2.54754">
        <ele>79.5</ele>
        <time>2013-04-14T09:21:04Z</time>
      </trkpt>
      <trkpt lat="49.98346" lon="2.54777">
        <ele>77.7</ele>
        <time>2013-04-14T09:21:14Z</time>
      </trkpt>
      <trkpt lat="49.9834" lon="2.54797">
        <ele>80</ele>
        <time>2013-04-14T09:21:24Z</time>
      </trkpt>
      <trkpt lat="49.98334" lon="2.54816">
        <ele>71.8</ele>
        <time>2013-04-14T09:21:31Z</time>
      </trkpt>
      <trkpt lat="49.98332" lon="2.54821">
        <ele>70.3</ele>
        <time>2013-04-14T09:21:34Z</time>
      </trkpt>
      <trkpt lat="49.98326" lon="2.54823">
        <ele>69</ele>
        <time>2013-04-14T09:21:35Z</time>
      </trkpt>
      <trkpt lat="49.98325" lon="2.54836">
        <ele>67.6</ele>
        <time>2013-04-14T09:21:41Z</time>
      </trkpt>
      <trkpt lat="49.98314" lon="2.54849">
        <ele>66</ele>
        <time>2013-04-14T09:21:48Z</time>
      </trkpt>
      <trkpt lat="49.98319" lon="2.54869">
        <ele>67.3</ele>
        <time>2013-04-14T09:21:59Z</time>
      </trkpt>
      <trkpt lat="49.98316" lon="2.54891">
        <ele>70</ele>
        <time>2013-04-14T09:22:09Z</time>
      </trkpt>
      <trkpt lat="49.9831" lon="2.54911">
        <ele>68.7</ele>
        <time>2013-04-14T09:22:19Z</time>
      </trkpt>
      <trkpt lat="49.98302" lon="2.54929">
        <ele>67.4</ele>
        <time>2013-04-14T09:22:28Z</time>
      </trkpt>
      <trkpt lat="49.98293" lon="2.54948">
        <ele>69.4</ele>
        <time>2013-04-14T09:22:41Z</time>
      </trkpt>
      <trkpt lat="49.98285" lon="2.54965">
        <ele>70.3</ele>
        <time>2013-04-14T09:22:50Z</time>
      </trkpt>
      <trkpt lat="49.98277" lon="2.54983">
        <ele>71.3</ele>
        <time>2013-04-14T09:23:00Z</time>
      </trkpt>
      <trkpt lat="49.98267" lon="2.55001">
        <ele>72.1</ele>
        <time>2013-04-14T09:23:08Z</time>
      </trkpt>
      <trkpt lat="49.9826" lon="2.5502">
        <ele>72.6</ele>
        <time>2013-04-14T09:23:21Z</time>
      </trkpt>
      <trkpt lat="49.98253" lon="2.5504">
        <ele>71.6</ele>
        <time>2013-04-14T09:23:32Z</time>
      </trkpt>
      <trkpt lat="49.98245" lon="2.55059">
        <ele>70.4</ele>
        <time>2013-04-14T09:23:45Z</time>
      </trkpt>
      <trkpt lat="49.98237" lon="2.55077">
        <ele>69.5</ele>
        <time>2013-04-14T09:23:55Z</time>
      </trkpt>
      <trkpt lat="49.9823" lon="2.55097">
        <ele>68.5</ele>
        <time>2013-04-14T09:24:07Z</time>
      </trkpt>
      <trkpt lat="49.98222" lon="2.55114">
        <ele>67.4</ele>
        <time>2013-04-14T09:24:17Z</time>
      </trkpt>
      <trkpt lat="49.98214" lon="2.55131">
        <ele>69.5</ele>
        <time>2013-04-14T09:24:31Z</time>
      </trkpt>
      <trkpt lat="49.9821" lon="2.55152">
        <ele>67.5</ele>
        <time>2013-04-14T09:24:43Z</time>
      </trkpt>
      <trkpt lat="49.98202" lon="2.55171">
        <ele>68.7</ele>
        <time>2013-04-14T09:24:52Z</time>
      </trkpt>
      <trkpt lat="49.98193" lon="2.55192">
        <ele>69.9</ele>
        <time>2013-04-14T09:25:01Z</time>
      </trkpt>
      <trkpt lat="49.9819" lon="2.55214">
        <ele>68.3</ele>
        <time>2013-04-14T09:25:13Z</time>
      </trkpt>
      <trkpt lat="49.98184" lon="2.55233">
        <ele>68</ele>
        <time>2013-04-14T09:25:23Z</time>
      </trkpt>
      <trkpt lat="49.98178" lon="2.55254">
        <ele>65</ele>
        <time>2013-04-14T09:25:36Z</time>
      </trkpt>
      <trkpt lat="49.9817" lon="2.55272">
        <ele>61.5</ele>
        <time>2013-04-14T09:25:47Z</time>
      </trkpt>
      <trkpt lat="49.98163" lon="2.55291">
        <ele>60.5</ele>
        <time>2013-04-14T09:25:59Z</time>
      </trkpt>
      <trkpt lat="49.98156" lon="2.5531">
        <ele>59.6</ele>
        <time>2013-04-14T09:26:11Z</time>
      </trkpt>
      <trkpt lat="49.98153" lon="2.55331">
        <ele>60.6</ele>
        <time>2013-04-14T09:26:22Z</time>
      </trkpt>
      <trkpt lat="49.98147" lon="2.55352">
        <ele>63</ele>
        <time>2013-04-14T09:26:34Z</time>
      </trkpt>
      <trkpt lat="49.98139" lon="2.5537">
        <ele>62.5</ele>
        <time>2013-04-14T09:26:41Z</time>
      </trkpt>
      <trkpt lat="49.98138" lon="2.55391">
        <ele>62.4</ele>
        <time>2013-04-14T09:26:52Z</time>
      </trkpt>
      <trkpt lat="49.98133" lon="2.55411">
        <ele>60.4</ele>
        <time>2013-04-14T09:27:03Z</time>
      </trkpt>
      <trkpt lat="49.98127" lon="2.55431">
        <ele>59.2</ele>
        <time>2013-04-14T09:27:14Z</time>
      </trkpt>
      <trkpt lat="49.98123" lon="2.55451">
        <ele>58.1</ele>
        <time>2013-04-14T09:27:23Z</time>
      </trkpt>
      <trkpt lat="49.98115" lon="2.55469">
        <ele>60.8</ele>
        <time>2013-04-14T09:27:36Z</time>
      </trkpt>
      <trkpt lat="49.9811" lon="2.55489">
        <ele>60.2</ele>
        <time>2013-04-14T09:27:46Z</time>
      </trkpt>
      <trkpt lat="49.98105" lon="2.5551">
        <ele>59.1</ele>
        <time>2013-04-14T09:27:57Z</time>
      </trkpt>
      <trkpt lat="49.98101" lon="2.55531">
        <ele>58.2</ele>
        <time>2013-04-14T09:28:07Z</time>
      </trkpt>
      <trkpt lat="49.98095" lon="2.5555">
        <ele>59.7</ele>
        <time>2013-04-14T09:28:18Z</time>
      </trkpt>
      <trkpt lat="49.98091" lon="2.55572">
        <ele>59.5</ele>
        <time>2013-04-14T09:28:31Z</time>
      </trkpt>
      <trkpt lat="49.98088" lon="2.55594">
        <ele>56.8</ele>
        <time>2013-04-14T09:28:42Z</time>
      </trkpt>
      <trkpt lat="49.98085" lon="2.55615">
        <ele>55.2</ele>
        <time>2013-04-14T09:28:51Z</time>
      </trkpt>
      <trkpt lat="49.98074" lon="2.5564">
        <ele>56.7</ele>
        <time>2013-04-14T09:29:03Z</time>
      </trkpt>
      <trkpt lat="49.98074" lon="2.5564">
        <ele>56.7</ele>
        <time>2013-04-14T09:32:31Z</time>
      </trkpt>
      <trkpt lat="49.98063" lon="2.55643">
        <ele>57.2</ele>
        <time>2013-04-14T09:32:34Z</time>
      </trkpt>
      <trkpt lat="49.98052" lon="2.5563">
        <ele>57.8</ele>
        <time>2013-04-14T09:32:46Z</time>
      </trkpt>
      <trkpt lat="49.98039" lon="2.55621">
        <ele>58.3</ele>
        <time>2013-04-14T09:32:57Z</time>
      </trkpt>
      <trkpt lat="49.98027" lon="2.55611">
        <ele>58.8</ele>
        <time>2013-04-14T09:33:07Z</time>
      </trkpt>
      <trkpt lat="49.98013" lon="2.5561">
        <ele>59.2</ele>
        <time>2013-04-14T09:33:18Z</time>
      </trkpt>
      <trkpt lat="49.98" lon="2.556">
        <ele>59.8</ele>
        <time>2013-04-14T09:33:30Z</time>
      </trkpt>
      <trkpt lat="49.97987" lon="2.55591">
        <ele>57</ele>
        <time>2013-04-14T09:33:39Z</time>
      </trkpt>
      <trkpt lat="49.97974" lon="2.55582">
        <ele>57.9</ele>
        <time>2013-04-14T09:33:47Z</time>
      </trkpt>
      <trkpt lat="49.9796" lon="2.55576">
        <ele>59.3</ele>
        <time>2013-04-14T09:33:59Z</time>
      </trkpt>
      <trkpt lat="49.97949" lon="2.55565">
        <ele>60.4</ele>
        <time>2013-04-14T09:34:08Z</time>
      </trkpt>
      <trkpt lat="49.97936" lon="2.55555">
        <ele>59.2</ele>
        <time>2013-04-14T09:34:18Z</time>
      </trkpt>
      <trkpt lat="49.97923" lon="2.55555">
        <ele>55.3</ele>
        <time>2013-04-14T09:34:31Z</time>
      </trkpt>
      <trkpt lat="49.97909" lon="2.55549">
        <ele>57.7</ele>
        <time>2013-04-14T09:34:39Z</time>
      </trkpt>
      <trkpt lat="49.97896" lon="2.55542">
        <ele>58.9</ele>
        <time>2013-04-14T09:34:48Z</time>
      </trkpt>
      <trkpt lat="49.97883" lon="2.55534">
        <ele>59.9</ele>
        <time>2013-04-14T09:34:58Z</time>
      </trkpt>
      <trkpt lat="49.9787" lon="2.55522">
        <ele>60.9</ele>
        <time>2013-04-14T09:35:06Z</time>
      </trkpt>
      <trkpt lat="49.97856" lon="2.5552">
        <ele>65.3</ele>
        <time>2013-04-14T09:35:18Z</time>
      </trkpt>
      <trkpt lat="49.97842" lon="2.55518">
        <ele>68.3</ele>
        <time>2013-04-14T09:35:27Z</time>
      </trkpt>
      <trkpt lat="49.97829" lon="2.55512">
        <ele>70</ele>
        <time>2013-04-14T09:35:36Z</time>
      </trkpt>
      <trkpt lat="49.97815" lon="2.55507">
        <ele>71.8</ele>
        <time>2013-04-14T09:35:46Z</time>
      </trkpt>
      <trkpt lat="49.97801" lon="2.55501">
        <ele>71.8</ele>
        <time>2013-04-14T09:35:59Z</time>
      </trkpt>
      <trkpt lat="49.97788" lon="2.55508">
        <ele>70.5</ele>
        <time>2013-04-14T09:36:10Z</time>
      </trkpt>
      <trkpt lat="49.97775" lon="2.55514">
        <ele>69.8</ele>
        <time>2013-04-14T09:36:19Z</time>
      </trkpt>
      <trkpt lat="49.97761" lon="2.55516">
        <ele>69.2</ele>
        <time>2013-04-14T09:36:29Z</time>
      </trkpt>
      <trkpt lat="49.97748" lon="2.55514">
        <ele>68.6</ele>
        <time>2013-04-14T09:36:38Z</time>
      </trkpt>
      <trkpt lat="49.97733" lon="2.55509">
        <ele>67.9</ele>
        <time>2013-04-14T09:36:50Z</time>
      </trkpt>
      <trkpt lat="49.97719" lon="2.55517">
        <ele>67.4</ele>
        <time>2013-04-14T09:36:58Z</time>
      </trkpt>
      <trkpt lat="49.97707" lon="2.55528">
        <ele>66.7</ele>
        <time>2013-04-14T09:37:11Z</time>
      </trkpt>
      <trkpt lat="49.97698" lon="2.55545">
        <ele>66</ele>
        <time>2013-04-14T09:37:24Z</time>
      </trkpt>
      <trkpt lat="49.9769" lon="2.55564">
        <ele>65.5</ele>
        <time>2013-04-14T09:37:33Z</time>
      </trkpt>
      <trkpt lat="49.97682" lon="2.55582">
        <ele>65.1</ele>
        <time>2013-04-14T09:37:42Z</time>
      </trkpt>
      <trkpt lat="49.97672" lon="2.55599">
        <ele>64.6</ele>
        <time>2013-04-14T09:37:51Z</time>
      </trkpt>
      <trkpt lat="49.97664" lon="2.55617">
        <ele>64.1</ele>
        <time>2013-04-14T09:38:01Z</time>
      </trkpt>
      <trkpt lat="49.97654" lon="2.55636">
        <ele>63.6</ele>
        <time>2013-04-14T09:38:10Z</time>
      </trkpt>
      <trkpt lat="49.97644" lon="2.55651">
        <ele>63.2</ele>
        <time>2013-04-14T09:38:19Z</time>
      </trkpt>
      <trkpt lat="49.9763" lon="2.55663">
        <ele>61.9</ele>
        <time>2013-04-14T09:38:27Z</time>
      </trkpt>
      <trkpt lat="49.97616" lon="2.55666">
        <ele>59.4</ele>
        <time>2013-04-14T09:38:37Z</time>
      </trkpt>
      <trkpt lat="49.97604" lon="2.55676">
        <ele>57.8</ele>
        <time>2013-04-14T09:38:46Z</time>
      </trkpt>
      <trkpt lat="49.976" lon="2.55698">
        <ele>55.3</ele>
        <time>2013-04-14T09:39:00Z</time>
      </trkpt>
      <trkpt lat="49.97591" lon="2.55717">
        <ele>54.4</ele>
        <time>2013-04-14T09:39:08Z</time>
      </trkpt>
      <trkpt lat="49.97582" lon="2.55734">
        <ele>56.2</ele>
        <time>2013-04-14T09:39:17Z</time>
      </trkpt>
      <trkpt lat="49.97571" lon="2.55747">
        <ele>54</ele>
        <time>2013-04-14T09:39:27Z</time>
      </trkpt>
      <trkpt lat="49.97558" lon="2.55757">
        <ele>54.2</ele>
        <time>2013-04-14T09:39:37Z</time>
      </trkpt>
      <trkpt lat="49.97551" lon="2.55776">
        <ele>55.9</ele>
        <time>2013-04-14T09:39:51Z</time>
      </trkpt>
      <trkpt lat="49.9754" lon="2.55789">
        <ele>56.8</ele>
        <time>2013-04-14T09:39:59Z</time>
      </trkpt>
      <trkpt lat="49.97529" lon="2.55789">
        <ele>53.8</ele>
        <time>2013-04-14T09:40:11Z</time>
      </trkpt>
      <trkpt lat="49.97529" lon="2.55784">
        <ele>52.9</ele>
        <time>2013-04-14T09:40:15Z</time>
      </trkpt>
      <trkpt lat="49.97516" lon="2.55788">
        <ele>49.9</ele>
        <time>2013-04-14T09:40:29Z</time>
      </trkpt>
      <trkpt lat="49.97502" lon="2.55784">
        <ele>48.2</ele>
        <time>2013-04-14T09:40:39Z</time>
      </trkpt>
      <trkpt lat="49.97488" lon="2.5579">
        <ele>46.9</ele>
        <time>2013-04-14T09:40:48Z</time>
      </trkpt>
      <trkpt lat="49.97476" lon="2.55803">
        <ele>45.6</ele>
        <time>2013-04-14T09:40:56Z</time>
      </trkpt>
      <trkpt lat="49.97463" lon="2.55815">
        <ele>41.1</ele>
        <time>2013-04-14T09:41:03Z</time>
      </trkpt>
      <trkpt lat="49.9745" lon="2.55823">
        <ele>41.7</ele>
        <time>2013-04-14T09:41:11Z</time>
      </trkpt>
      <trkpt lat="49.97436" lon="2.55825">
        <ele>46.6</ele>
        <time>2013-04-14T09:41:20Z</time>
      </trkpt>
      <trkpt lat="49.97422" lon="2.55823">
        <ele>50.7</ele>
        <time>2013-04-14T09:41:30Z</time>
      </trkpt>
      <trkpt lat="49.9741" lon="2.55832">
        <ele>55</ele>
        <time>2013-04-14T09:41:42Z</time>
      </trkpt>
      <trkpt lat="49.97398" lon="2.55844">
        <ele>55.6</ele>
        <time>2013-04-14T09:41:51Z</time>
      </trkpt>
      <trkpt lat="49.9739" lon="2.55863">
        <ele>55.3</ele>
        <time>2013-04-14T09:42:02Z</time>
      </trkpt>
      <trkpt lat="49.97379" lon="2.55877">
        <ele>53.7</ele>
        <time>2013-04-14T09:42:11Z</time>
      </trkpt>
      <trkpt lat="49.97365" lon="2.55884">
        <ele>52</ele>
        <time>2013-04-14T09:42:21Z</time>
      </trkpt>
      <trkpt lat="49.97355" lon="2.55902">
        <ele>47.1</ele>
        <time>2013-04-14T09:42:30Z</time>
      </trkpt>
      <trkpt lat="49.97344" lon="2.55914">
        <ele>48</ele>
        <time>2013-04-14T09:42:39Z</time>
      </trkpt>
      <trkpt lat="49.9733" lon="2.55921">
        <ele>47.5</ele>
        <time>2013-04-14T09:42:51Z</time>
      </trkpt>
      <trkpt lat="49.97317" lon="2.55929">
        <ele>45.5</ele>
        <time>2013-04-14T09:42:59Z</time>
      </trkpt>
      <trkpt lat="49.97308" lon="2.55944">
        <ele>46.8</ele>
        <time>2013-04-14T09:43:10Z</time>
      </trkpt>
      <trkpt lat="49.97294" lon="2.55949">
        <ele>49.7</ele>
        <time>2013-04-14T09:43:20Z</time>
      </trkpt>
      <trkpt lat="49.97283" lon="2.55964">
        <ele>48.5</ele>
        <time>2013-04-14T09:43:33Z</time>
      </trkpt>
      <trkpt lat="49.97271" lon="2.55975">
        <ele>47.5</ele>
        <time>2013-04-14T09:43:44Z</time>
      </trkpt>
      <trkpt lat="49.97257" lon="2.55981">
        <ele>46.3</ele>
        <time>2013-04-14T09:43:52Z</time>
      </trkpt>
      <trkpt lat="49.97244" lon="2.55994">
        <ele>44.4</ele>
        <time>2013-04-14T09:44:03Z</time>
      </trkpt>
      <trkpt lat="49.97232" lon="2.56003">
        <ele>44.6</ele>
        <time>2013-04-14T09:44:12Z</time>
      </trkpt>
      <trkpt lat="49.97219" lon="2.56012">
        <ele>45.5</ele>
        <time>2013-04-14T09:44:22Z</time>
      </trkpt>
      <trkpt lat="49.97206" lon="2.56019">
        <ele>46.6</ele>
        <time>2013-04-14T09:44:35Z</time>
      </trkpt>
      <trkpt lat="49.97192" lon="2.56026">
        <ele>47.7</ele>
        <time>2013-04-14T09:44:42Z</time>
      </trkpt>
      <trkpt lat="49.97178" lon="2.56032">
        <ele>49.7</ele>
        <time>2013-04-14T09:44:54Z</time>
      </trkpt>
      <trkpt lat="49.97163" lon="2.56035">
        <ele>51.8</ele>
        <time>2013-04-14T09:45:04Z</time>
      </trkpt>
      <trkpt lat="49.97148" lon="2.56036">
        <ele>53.2</ele>
        <time>2013-04-14T09:45:16Z</time>
      </trkpt>
      <trkpt lat="49.97134" lon="2.56033">
        <ele>54.2</ele>
        <time>2013-04-14T09:45:25Z</time>
      </trkpt>
      <trkpt lat="49.9712" lon="2.56028">
        <ele>55.3</ele>
        <time>2013-04-14T09:45:34Z</time>
      </trkpt>
      <trkpt lat="49.97106" lon="2.56029">
        <ele>55.1</ele>
        <time>2013-04-14T09:45:42Z</time>
      </trkpt>
      <trkpt lat="49.97092" lon="2.56026">
        <ele>52.5</ele>
        <time>2013-04-14T09:45:54Z</time>
      </trkpt>
      <trkpt lat="49.97079" lon="2.56021">
        <ele>52.7</ele>
        <time>2013-04-14T09:46:04Z</time>
      </trkpt>
      <trkpt lat="49.97065" lon="2.56023">
        <ele>53.6</ele>
        <time>2013-04-14T09:46:12Z</time>
      </trkpt>
      <trkpt lat="49.97052" lon="2.56014">
        <ele>52.7</ele>
        <time>2013-04-14T09:46:23Z</time>
      </trkpt>
      <trkpt lat="49.97039" lon="2.56005">
        <ele>51.8</ele>
        <time>2013-04-14T09:46:35Z</time>
      </trkpt>
      <trkpt lat="49.97025" lon="2.55999">
        <ele>49.9</ele>
        <time>2013-04-14T09:46:47Z</time>
      </trkpt>
      <trkpt lat="49.97011" lon="2.55999">
        <ele>49.3</ele>
        <time>2013-04-14T09:46:56Z</time>
      </trkpt>
      <trkpt lat="49.96998" lon="2.55989">
        <ele>51.2</ele>
        <time>2013-04-14T09:47:04Z</time>
      </trkpt>
      <trkpt lat="49.96984" lon="2.55986">
        <ele>51.9</ele>
        <time>2013-04-14T09:47:17Z</time>
      </trkpt>
      <trkpt lat="49.9697" lon="2.55986">
        <ele>50.7</ele>
        <time>2013-04-14T09:47:26Z</time>
      </trkpt>
      <trkpt lat="49.96955" lon="2.55985">
        <ele>53</ele>
        <time>2013-04-14T09:47:39Z</time>
      </trkpt>
      <trkpt lat="49.96941" lon="2.55988">
        <ele>51</ele>
        <time>2013-04-14T09:47:47Z</time>
      </trkpt>
      <trkpt lat="49.96927" lon="2.55993">
        <ele>48.1</ele>
        <time>2013-04-14T09:47:58Z</time>
      </trkpt>
      <trkpt lat="49.96914" lon="2.56">
        <ele>46</ele>
        <time>2013-04-14T09:48:08Z</time>
      </trkpt>
      <trkpt lat="49.96903" lon="2.56016">
        <ele>46.6</ele>
        <time>2013-04-14T09:48:18Z</time>
      </trkpt>
      <trkpt lat="49.9689" lon="2.56025">
        <ele>50</ele>
        <time>2013-04-14T09:48:28Z</time>
      </trkpt>
      <trkpt lat="49.96878" lon="2.56036">
        <ele>50.4</ele>
        <time>2013-04-14T09:48:39Z</time>
      </trkpt>
      <trkpt lat="49.96866" lon="2.56049">
        <ele>49.3</ele>
        <time>2013-04-14T09:48:53Z</time>
      </trkpt>
      <trkpt lat="49.96854" lon="2.56059">
        <ele>48.7</ele>
        <time>2013-04-14T09:49:02Z</time>
      </trkpt>
      <trkpt lat="49.96843" lon="2.56072">
        <ele>48.1</ele>
        <time>2013-04-14T09:49:11Z</time>
      </trkpt>
      <trkpt lat="49.9683" lon="2.56082">
        <ele>47.4</ele>
        <time>2013-04-14T09:49:20Z</time>
      </trkpt>
      <trkpt lat="49.96817" lon="2.56092">
        <ele>47</ele>
        <time>2013-04-14T09:49:31Z</time>
      </trkpt>
      <trkpt lat="49.96804" lon="2.56101">
        <ele>47</ele>
        <time>2013-04-14T09:49:43Z</time>
      </trkpt>
      <trkpt lat="49.96792" lon="2.56112">
        <ele>47</ele>
        <time>2013-04-14T09:49:51Z</time>
      </trkpt>
      <trkpt lat="49.96781" lon="2.56125">
        <ele>44.4</ele>
        <time>2013-04-14T09:50:04Z</time>
      </trkpt>
      <trkpt lat="49.96771" lon="2.56141">
        <ele>40.2</ele>
        <time>2013-04-14T09:50:12Z</time>
      </trkpt>
      <trkpt lat="49.96756" lon="2.56146">
        <ele>42.1</ele>
        <time>2013-04-14T09:50:22Z</time>
      </trkpt>
      <trkpt lat="49.96744" lon="2.56154">
        <ele>42.8</ele>
        <time>2013-04-14T09:50:35Z</time>
      </trkpt>
      <trkpt lat="49.9673" lon="2.56163">
        <ele>43.6</ele>
        <time>2013-04-14T09:50:47Z</time>
      </trkpt>
      <trkpt lat="49.96716" lon="2.56171">
        <ele>44</ele>
        <time>2013-04-14T09:50:54Z</time>
      </trkpt>
      <trkpt lat="49.96704" lon="2.56181">
        <ele>44.7</ele>
        <time>2013-04-14T09:51:05Z</time>
      </trkpt>
      <trkpt lat="49.96691" lon="2.5619">
        <ele>47.1</ele>
        <time>2013-04-14T09:51:16Z</time>
      </trkpt>
      <trkpt lat="49.96678" lon="2.56199">
        <ele>47.8</ele>
        <time>2013-04-14T09:51:29Z</time>
      </trkpt>
      <trkpt lat="49.96668" lon="2.56214">
        <ele>46.4</ele>
        <time>2013-04-14T09:51:37Z</time>
      </trkpt>
      <trkpt lat="49.96654" lon="2.56223">
        <ele>49.6</ele>
        <time>2013-04-14T09:51:50Z</time>
      </trkpt>
      <trkpt lat="49.9664" lon="2.56228">
        <ele>50.9</ele>
        <time>2013-04-14T09:52:02Z</time>
      </trkpt>
      <trkpt lat="49.96629" lon="2.56241">
        <ele>52</ele>
        <time>2013-04-14T09:52:11Z</time>
      </trkpt>
      <trkpt lat="49.96617" lon="2.56253">
        <ele>50.6</ele>
        <time>2013-04-14T09:52:22Z</time>
      </trkpt>
      <trkpt lat="49.96604" lon="2.56263">
        <ele>49.4</ele>
        <time>2013-04-14T09:52:31Z</time>
      </trkpt>
      <trkpt lat="49.96594" lon="2.56278">
        <ele>53.6</ele>
        <time>2013-04-14T09:52:46Z</time>
      </trkpt>
      <trkpt lat="49.9658" lon="2.56284">
        <ele>53.2</ele>
        <time>2013-04-14T09:52:56Z</time>
      </trkpt>
      <trkpt lat="49.96568" lon="2.56296">
        <ele>51.7</ele>
        <time>2013-04-14T09:53:14Z</time>
      </trkpt>
      <trkpt lat="49.96556" lon="2.56309">
        <ele>50.8</ele>
        <time>2013-04-14T09:53:23Z</time>
      </trkpt>
      <trkpt lat="49.96543" lon="2.56317">
        <ele>49.4</ele>
        <time>2013-04-14T09:53:30Z</time>
      </trkpt>
      <trkpt lat="49.96529" lon="2.56324">
        <ele>49.3</ele>
        <time>2013-04-14T09:53:43Z</time>
      </trkpt>
      <trkpt lat="49.96516" lon="2.56332">
        <ele>49.5</ele>
        <time>2013-04-14T09:54:00Z</time>
      </trkpt>
      <trkpt lat="49.96503" lon="2.56336">
        <ele>48.7</ele>
        <time>2013-04-14T09:54:06Z</time>
      </trkpt>
      <trkpt lat="49.96493" lon="2.56353">
        <ele>47.5</ele>
        <time>2013-04-14T09:54:19Z</time>
      </trkpt>
      <trkpt lat="49.96478" lon="2.56355">
        <ele>46.9</ele>
        <time>2013-04-14T09:54:29Z</time>
      </trkpt>
      <trkpt lat="49.96468" lon="2.56357">
        <ele>46.3</ele>
        <time>2013-04-14T09:54:36Z</time>
      </trkpt>
      <trkpt lat="49.96468" lon="2.56336">
        <ele>45.9</ele>
        <time>2013-04-14T09:54:43Z</time>
      </trkpt>
      <trkpt lat="49.9647" lon="2.56315">
        <ele>45.5</ele>
        <time>2013-04-14T09:54:49Z</time>
      </trkpt>
      <trkpt lat="49.96457" lon="2.56307">
        <ele>42.7</ele>
        <time>2013-04-14T09:54:59Z</time>
      </trkpt>
      <trkpt lat="49.96447" lon="2.5629">
        <ele>42.1</ele>
        <time>2013-04-14T09:55:14Z</time>
      </trkpt>
      <trkpt lat="49.96432" lon="2.56299">
        <ele>45.1</ele>
        <time>2013-04-14T09:55:36Z</time>
      </trkpt>
      <trkpt lat="49.96419" lon="2.56306">
        <ele>45.6</ele>
        <time>2013-04-14T09:55:46Z</time>
      </trkpt>
      <trkpt lat="49.96406" lon="2.56316">
        <ele>46</ele>
        <time>2013-04-14T09:55:53Z</time>
      </trkpt>
      <trkpt lat="49.96395" lon="2.5633">
        <ele>46.8</ele>
        <time>2013-04-14T09:56:07Z</time>
      </trkpt>
      <trkpt lat="49.96383" lon="2.56343">
        <ele>47.3</ele>
        <time>2013-04-14T09:56:17Z</time>
      </trkpt>
      <trkpt lat="49.9637" lon="2.5635">
        <ele>47.8</ele>
        <time>2013-04-14T09:56:25Z</time>
      </trkpt>
      <trkpt lat="49.96358" lon="2.56362">
        <ele>44.8</ele>
        <time>2013-04-14T09:56:43Z</time>
      </trkpt>
      <trkpt lat="49.96345" lon="2.56376">
        <ele>44</ele>
        <time>2013-04-14T09:56:54Z</time>
      </trkpt>
      <trkpt lat="49.96333" lon="2.56385">
        <ele>43.2</ele>
        <time>2013-04-14T09:57:05Z</time>
      </trkpt>
      <trkpt lat="49.96321" lon="2.56399">
        <ele>42.2</ele>
        <time>2013-04-14T09:57:19Z</time>
      </trkpt>
      <trkpt lat="49.9631" lon="2.56412">
        <ele>41.6</ele>
        <time>2013-04-14T09:57:28Z</time>
      </trkpt>
      <trkpt lat="49.963" lon="2.56427">
        <ele>41.4</ele>
        <time>2013-04-14T09:57:39Z</time>
      </trkpt>
      <trkpt lat="49.96291" lon="2.56443">
        <ele>42.8</ele>
        <time>2013-04-14T09:57:50Z</time>
      </trkpt>
      <trkpt lat="49.96282" lon="2.5646">
        <ele>44.3</ele>
        <time>2013-04-14T09:58:00Z</time>
      </trkpt>
      <trkpt lat="49.96273" lon="2.56478">
        <ele>46.1</ele>
        <time>2013-04-14T09:58:11Z</time>
      </trkpt>
      <trkpt lat="49.96266" lon="2.56496">
        <ele>49.3</ele>
        <time>2013-04-14T09:58:25Z</time>
      </trkpt>
      <trkpt lat="49.96257" lon="2.56514">
        <ele>52.2</ele>
        <time>2013-04-14T09:58:37Z</time>
      </trkpt>
      <trkpt lat="49.96244" lon="2.56524">
        <ele>55.7</ele>
        <time>2013-04-14T09:58:49Z</time>
      </trkpt>
      <trkpt lat="49.9623" lon="2.56534">
        <ele>51.3</ele>
        <time>2013-04-14T09:59:03Z</time>
      </trkpt>
      <trkpt lat="49.96216" lon="2.56541">
        <ele>50.4</ele>
        <time>2013-04-14T09:59:10Z</time>
      </trkpt>
      <trkpt lat="49.96205" lon="2.5655">
        <ele>51.6</ele>
        <time>2013-04-14T09:59:17Z</time>
      </trkpt>
      <trkpt lat="49.96191" lon="2.56549">
        <ele>53.5</ele>
        <time>2013-04-14T09:59:28Z</time>
      </trkpt>
      <trkpt lat="49.96177" lon="2.56549">
        <ele>55.3</ele>
        <time>2013-04-14T09:59:37Z</time>
      </trkpt>
      <trkpt lat="49.96162" lon="2.56555">
        <ele>49</ele>
        <time>2013-04-14T09:59:52Z</time>
      </trkpt>
      <trkpt lat="49.96153" lon="2.5656">
        <ele>45.9</ele>
        <time>2013-04-14T09:59:59Z</time>
      </trkpt>
      <trkpt lat="49.96138" lon="2.56562">
        <ele>42</ele>
        <time>2013-04-14T10:00:14Z</time>
      </trkpt>
      <trkpt lat="49.96127" lon="2.56573">
        <ele>44.5</ele>
        <time>2013-04-14T10:00:24Z</time>
      </trkpt>
      <trkpt lat="49.96121" lon="2.56578">
        <ele>46</ele>
        <time>2013-04-14T10:00:30Z</time>
      </trkpt>
      <trkpt lat="49.96115" lon="2.5659">
        <ele>40.8</ele>
        <time>2013-04-14T10:00:41Z</time>
      </trkpt>
      <trkpt lat="49.9611" lon="2.56613">
        <ele>36.6</ele>
        <time>2013-04-14T10:00:44Z</time>
      </trkpt>
      <trkpt lat="49.96102" lon="2.56619">
        <ele>39</ele>
        <time>2013-04-14T10:00:49Z</time>
      </trkpt>
      <trkpt lat="49.96103" lon="2.56614">
        <ele>39.6</ele>
        <time>2013-04-14T10:00:49Z</time>
      </trkpt>
      <trkpt lat="49.96087" lon="2.56614">
        <ele>42.6</ele>
        <time>2013-04-14T10:00:56Z</time>
      </trkpt>
      <trkpt lat="49.96074" lon="2.56625">
        <ele>44.4</ele>
        <time>2013-04-14T10:01:04Z</time>
      </trkpt>
      <trkpt lat="49.96061" lon="2.56633">
        <ele>49.5</ele>
        <time>2013-04-14T10:01:19Z</time>
      </trkpt>
      <trkpt lat="49.96056" lon="2.56621">
        <ele>49.5</ele>
        <time>2013-04-14T10:01:29Z</time>
      </trkpt>
      <trkpt lat="49.96042" lon="2.56633">
        <ele>48</ele>
        <time>2013-04-14T10:01:34Z</time>
      </trkpt>
      <trkpt lat="49.9603" lon="2.56645">
        <ele>46.9</ele>
        <time>2013-04-14T10:01:41Z</time>
      </trkpt>
      <trkpt lat="49.9602" lon="2.56662">
        <ele>43.6</ele>
        <time>2013-04-14T10:01:50Z</time>
      </trkpt>
      <trkpt lat="49.96015" lon="2.56666">
        <ele>44.5</ele>
        <time>2013-04-14T10:01:55Z</time>
      </trkpt>
      <trkpt lat="49.95995" lon="2.56653">
        <ele>45</ele>
        <time>2013-04-14T10:02:01Z</time>
      </trkpt>
      <trkpt lat="49.95995" lon="2.56653">
        <ele>45</ele>
        <time>2013-04-14T10:03:32Z</time>
      </trkpt>
      <trkpt lat="49.9598" lon="2.5665">
        <ele>43.6</ele>
        <time>2013-04-14T10:03:40Z</time>
      </trkpt>
      <trkpt lat="49.95969" lon="2.56661">
        <ele>47.3</ele>
        <time>2013-04-14T10:06:44Z</time>
      </trkpt>
    </trkseg>
  </trk>
</gpx>